Observation data for JA Ranch on 01/20/2019      Previous  Date  Next       Current Mesonet Observations  Soil Data  Daily Summary Page  Observations in Plain Language
KPD3 200600Z 01001KT M03/M06 A3032 RMK A01 T10341061  RH  082%=      5-min Rain = 0
KPD3 200601Z 01001KT M04/M07 A3032 RMK A01 T10381068  RH  080%=      5-min Rain = 0
KPD3 200602Z 33001KT M04/M07 A3032 RMK A01 T10411067  RH  082%=      5-min Rain = 0
KPD3 200603Z 33000KT M04/M06 A3032 RMK A01 T10391059  RH  086%=      5-min Rain = 0
KPD3 200604Z 27001KT M04/M06 A3032 RMK A01 T10401064  RH  084%=      5-min Rain = 0
KPD3 200605Z 26000KT M04/M07 A3032 RMK A01 T10431066  RH  084%=      5-min Rain = 0
KPD3 200606Z 29000KT M04/M06 A3032 RMK A01 T10401059  RH  087%=      5-min Rain = 0
KPD3 200607Z 09000KT M04/M06 A3032 RMK A01 T10381055  RH  087%=      5-min Rain = 0
KPD3 200608Z 09001KT M04/M06 A3031 RMK A01 T10361056  RH  086%=      5-min Rain = 0
KPD3 200609Z 11002KT M04/M06 A3031 RMK A01 T10381062  RH  083%=      5-min Rain = 0
KPD3 200610Z 11002KT M04/M07 A303 RMK A01 T10421070  RH  081%=      5-min Rain = 0
KPD3 200611Z 11002KT M05/M07 A303 RMK A01 T10471074  RH  081%=      5-min Rain = 0
KPD3 200612Z 11002KT M05/M08 A303 RMK A01 T10511078  RH  081%=      5-min Rain = 0
KPD3 200613Z 11002KT M05/M08 A303 RMK A01 T10541082  RH  081%=      5-min Rain = 0
KPD3 200614Z 11002KT M06/M08 A303 RMK A01 T10561082  RH  082%=      5-min Rain = 0
KPD3 200615Z 11002KT M06/M08 A303 RMK A01 T10581080  RH  084%=      5-min Rain = 0
KPD3 200616Z 11002KT M06/M08 A303 RMK A01 T10591081  RH  085%=      5-min Rain = 0
KPD3 200617Z 11001KT M06/M08 A303 RMK A01 T10601081  RH  086%=      5-min Rain = 0
KPD3 200618Z 12001KT M06/M08 A303 RMK A01 T10601077  RH  088%=      5-min Rain = 0
KPD3 200619Z 11001KT M06/M07 A303 RMK A01 T10581073  RH  089%=      5-min Rain = 0
KPD3 200620Z 10001KT M06/M07 A303 RMK A01 T10581073  RH  089%=      5-min Rain = 0
KPD3 200621Z 09002KT M06/M08 A303 RMK A01 T10591075  RH  089%=      5-min Rain = 0
KPD3 200622Z 08002KT M06/M08 A303 RMK A01 T10621081  RH  086%=      5-min Rain = 0
KPD3 200623Z 08002KT M07/M09 A303 RMK A01 T10651087  RH  084%=      5-min Rain = 0
KPD3 200624Z 08002KT M07/M09 A303 RMK A01 T10671088  RH  085%=      5-min Rain = 0
KPD3 200625Z 08002KT M07/M09 A303 RMK A01 T10671085  RH  087%=      5-min Rain = 0
KPD3 200626Z 08002KT M07/M08 A303 RMK A01 T10661081  RH  089%=      5-min Rain = 0
KPD3 200627Z 08002KT M07/M08 A303 RMK A01 T10661080  RH  089%=      5-min Rain = 0
KPD3 200628Z 08002KT M07/M09 A3031 RMK A01 T10681085  RH  088%=      5-min Rain = 0
KPD3 200629Z 08002KT M07/M08 A3031 RMK A01 T10681084  RH  089%=      5-min Rain = 0
KPD3 200630Z 08003KT M07/M08 A303 RMK A01 T10671080  RH  090%=      5-min Rain = 0
KPD3 200631Z 07003KT M06/M08 A3031 RMK A01 T10641076  RH  092%=      5-min Rain = 0
KPD3 200632Z 07003KT M06/M07 A3031 RMK A01 T10631073  RH  092%=      5-min Rain = 0
KPD3 200633Z 07003KT M06/M07 A3031 RMK A01 T10611071  RH  093%=      5-min Rain = 0
KPD3 200634Z 08002KT M06/M07 A3031 RMK A01 T10611071  RH  092%=      5-min Rain = 0
KPD3 200635Z 10002KT M06/M07 A3031 RMK A01 T10611074  RH  091%=      5-min Rain = 0
KPD3 200636Z 10001KT M06/M07 A3031 RMK A01 T10611073  RH  091%=      5-min Rain = 0
KPD3 200637Z 11001KT M06/M07 A3031 RMK A01 T10581070  RH  092%=      5-min Rain = 0
KPD3 200638Z 10001KT M06/M07 A3031 RMK A01 T10581069  RH  092%=      5-min Rain = 0
KPD3 200639Z 10001KT M06/M07 A3031 RMK A01 T10571069  RH  091%=      5-min Rain = 0
KPD3 200640Z 11002KT M06/M07 A3031 RMK A01 T10581072  RH  090%=      5-min Rain = 0
KPD3 200641Z 11002KT M06/M07 A3031 RMK A01 T10581072  RH  090%=      5-min Rain = 0
KPD3 200642Z 11002KT M06/M07 A3031 RMK A01 T10591074  RH  089%=      5-min Rain = 0
KPD3 200643Z 11001KT M06/M08 A3031 RMK A01 T10601076  RH  089%=      5-min Rain = 0
KPD3 200644Z 11002KT M06/M08 A3031 RMK A01 T10601075  RH  089%=      5-min Rain = 0
KPD3 200645Z 11002KT M06/M07 A303 RMK A01 T10571069  RH  091%=      5-min Rain = 0
KPD3 200646Z 11002KT M06/M07 A303 RMK A01 T10571068  RH  092%=      5-min Rain = 0
KPD3 200647Z 11002KT M06/M07 A303 RMK A01 T10561068  RH  091%=      5-min Rain = 0
KPD3 200648Z 10002KT M06/M07 A3031 RMK A01 T10551068  RH  091%=      5-min Rain = 0
KPD3 200649Z 10002KT M06/M07 A3031 RMK A01 T10561072  RH  089%=      5-min Rain = 0
KPD3 200650Z 10002KT M06/M08 A3031 RMK A01 T10601079  RH  086%=      5-min Rain = 0
KPD3 200651Z 10002KT M06/M08 A3031 RMK A01 T10601078  RH  087%=      5-min Rain = 0
KPD3 200652Z 12001KT M06/M08 A3031 RMK A01 T10611078  RH  088%=      5-min Rain = 0
KPD3 200653Z 13001KT M06/M08 A3031 RMK A01 T10631080  RH  088%=      5-min Rain = 0
KPD3 200654Z 15001KT M06/M08 A3031 RMK A01 T10611076  RH  089%=      5-min Rain = 0
KPD3 200655Z 16000KT M06/M08 A3031 RMK A01 T10611075  RH  090%=      5-min Rain = 0
KPD3 200656Z 14001KT M06/M08 A3031 RMK A01 T10611076  RH  089%=      5-min Rain = 0
KPD3 200657Z 14001KT M06/M07 A3031 RMK A01 T10591073  RH  090%=      5-min Rain = 0
KPD3 200658Z 14001KT M06/M07 A3032 RMK A01 T10581071  RH  091%=      5-min Rain = 0
KPD3 200659Z 12000KT M06/M07 A3032 RMK A01 T10561068  RH  091%=      5-min Rain = 0
KPD3 200700Z 12001KT M05/M07 A3032 RMK A01 T10541066  RH  091%=      5-min Rain = 0
KPD3 200701Z 13001KT M05/M06 A3032 RMK A01 T10521064  RH  091%=      5-min Rain = 0
KPD3 200702Z 14001KT M05/M06 A3032 RMK A01 T10511064  RH  090%=      5-min Rain = 0
KPD3 200703Z 16001KT M05/M06 A3032 RMK A01 T10501064  RH  090%=      5-min Rain = 0
KPD3 200704Z 18001KT M05/M07 A3032 RMK A01 T10491065  RH  089%=      5-min Rain = 0
KPD3 200705Z 15000KT M05/M07 A3032 RMK A01 T10491065  RH  089%=      5-min Rain = 0
KPD3 200706Z 14000KT M05/M07 A3032 RMK A01 T10491066  RH  087%=      5-min Rain = 0
KPD3 200707Z 00000KT M05/M07 A3032 RMK A01 T10481065  RH  088%=      5-min Rain = 0
KPD3 200708Z 00000KT M05/M08 A3032 RMK A01 T10521076  RH  084%=      5-min Rain = 0
KPD3 200709Z 12001KT M06/M08 A3032 RMK A01 T10571081  RH  083%=      5-min Rain = 0
KPD3 200710Z 00000KT M06/M08 A3032 RMK A01 T10571077  RH  085%=      5-min Rain = 0
KPD3 200711Z 17000KT M06/M08 A3031 RMK A01 T10581077  RH  086%=      5-min Rain = 0
KPD3 200712Z 16002KT M06/M08 A3031 RMK A01 T10581076  RH  087%=      5-min Rain = 0
KPD3 200713Z 16002KT M06/M08 A3031 RMK A01 T10581075  RH  088%=      5-min Rain = 0
KPD3 200714Z 15002KT M06/M08 A3031 RMK A01 T10581075  RH  088%=      5-min Rain = 0
KPD3 200715Z 18001KT M06/M07 A3031 RMK A01 T10581074  RH  089%=      5-min Rain = 0
KPD3 200716Z 20001KT M06/M07 A3031 RMK A01 T10581073  RH  089%=      5-min Rain = 0
KPD3 200717Z 21001KT M06/M07 A3031 RMK A01 T10571073  RH  089%=      5-min Rain = 0
KPD3 200718Z 20001KT M06/M07 A3031 RMK A01 T10561072  RH  089%=      5-min Rain = 0
KPD3 200719Z 20001KT M06/M07 A3031 RMK A01 T10561074  RH  087%=      5-min Rain = 0
KPD3 200720Z 19001KT M06/M08 A3031 RMK A01 T10601082  RH  085%=      5-min Rain = 0
KPD3 200721Z 20001KT M06/M09 A3031 RMK A01 T10631086  RH  084%=      5-min Rain = 0
KPD3 200722Z 21001KT M06/M08 A3031 RMK A01 T10641084  RH  085%=      5-min Rain = 0
KPD3 200723Z 21001KT M06/M08 A3031 RMK A01 T10631081  RH  087%=      5-min Rain = 0
KPD3 200724Z 19001KT M06/M08 A3031 RMK A01 T10611076  RH  089%=      5-min Rain = 0
KPD3 200725Z 18001KT M06/M07 A3031 RMK A01 T10601074  RH  090%=      5-min Rain = 0
KPD3 200726Z 19002KT M06/M07 A3031 RMK A01 T10591074  RH  089%=      5-min Rain = 0
KPD3 200727Z 19002KT M06/M08 A3031 RMK A01 T10591075  RH  089%=      5-min Rain = 0
KPD3 200728Z 20003KT M06/M07 A3031 RMK A01 T10561071  RH  090%=      5-min Rain = 0
KPD3 200729Z 20003KT M05/M07 A3031 RMK A01 T10541068  RH  090%=      5-min Rain = 0
KPD3 200730Z 20003KT M05/M07 A3031 RMK A01 T10531068  RH  089%=      5-min Rain = 0
KPD3 200731Z 21003KT M06/M08 A3031 RMK A01 T10561076  RH  086%=      5-min Rain = 0
KPD3 200732Z 22003KT M06/M08 A3031 RMK A01 T10611084  RH  084%=      5-min Rain = 0
KPD3 200733Z 22003KT M07/M09 A3031 RMK A01 T10651088  RH  084%=      5-min Rain = 0
KPD3 200734Z 22003KT M07/M09 A3031 RMK A01 T10681090  RH  084%=      5-min Rain = 0
KPD3 200735Z 22003KT M07/M09 A3031 RMK A01 T10701090  RH  085%=      5-min Rain = 0
KPD3 200736Z 23004KT M07/M09 A3031 RMK A01 T10701089  RH  086%=      5-min Rain = 0
KPD3 200737Z 22003KT M07/M09 A3031 RMK A01 T10711089  RH  087%=      5-min Rain = 0
KPD3 200738Z 22003KT M07/M09 A3031 RMK A01 T10711088  RH  088%=      5-min Rain = 0
KPD3 200739Z 22004KT M07/M09 A3031 RMK A01 T10711086  RH  089%=      5-min Rain = 0
KPD3 200740Z 22004KT M07/M09 A3031 RMK A01 T10701086  RH  089%=      5-min Rain = 0
KPD3 200741Z 22004KT M07/M09 A3031 RMK A01 T10711088  RH  088%=      5-min Rain = 0
KPD3 200742Z 21004KT M07/M09 A3031 RMK A01 T10721087  RH  089%=      5-min Rain = 0
KPD3 200743Z 21005KT M07/M09 A3031 RMK A01 T10711087  RH  089%=      5-min Rain = 0
KPD3 200744Z 21005KT M07/M09 A3031 RMK A01 T10711087  RH  089%=      5-min Rain = 0
KPD3 200745Z 21005KT M07/M09 A3031 RMK A01 T10711087  RH  089%=      5-min Rain = 0
KPD3 200746Z 21005KT M07/M09 A3031 RMK A01 T10711087  RH  089%=      5-min Rain = 0
KPD3 200747Z 20004KT M07/M09 A3031 RMK A01 T10721087  RH  089%=      5-min Rain = 0
KPD3 200748Z 20004KT M07/M09 A3031 RMK A01 T10701085  RH  089%=      5-min Rain = 0
KPD3 200749Z 20003KT M07/M08 A3031 RMK A01 T10701084  RH  090%=      5-min Rain = 0
KPD3 200750Z 22004KT M07/M09 A3031 RMK A01 T10691085  RH  089%=      5-min Rain = 0
KPD3 200751Z 22004KT M07/M09 A3031 RMK A01 T10711088  RH  088%=      5-min Rain = 0
KPD3 200752Z 21004KT M07/M09 A3031 RMK A01 T10731090  RH  087%=      5-min Rain = 0
KPD3 200753Z 20003KT M07/M09 A3031 RMK A01 T10731089  RH  088%=      5-min Rain = 0
KPD3 200754Z 21003KT M07/M09 A3031 RMK A01 T10721088  RH  089%=      5-min Rain = 0
KPD3 200755Z 21003KT M07/M09 A3031 RMK A01 T10711086  RH  090%=      5-min Rain = 0
KPD3 200756Z 22003KT M07/M08 A3031 RMK A01 T10701084  RH  090%=      5-min Rain = 0
KPD3 200757Z 22003KT M07/M08 A3031 RMK A01 T10691084  RH  090%=      5-min Rain = 0
KPD3 200758Z 21003KT M07/M09 A3031 RMK A01 T10691085  RH  089%=      5-min Rain = 0
KPD3 200759Z 22003KT M07/M09 A3032 RMK A01 T10691085  RH  089%=      5-min Rain = 0
KPD3 200800Z 23004KT M07/M09 A3032 RMK A01 T10691085  RH  088%=      5-min Rain = 0
KPD3 200801Z 24003KT M07/M09 A3032 RMK A01 T10691085  RH  088%=      5-min Rain = 0
KPD3 200802Z 23003KT M07/M09 A3031 RMK A01 T10681085  RH  088%=      5-min Rain = 0
KPD3 200803Z 23003KT M07/M09 A3031 RMK A01 T10681086  RH  087%=      5-min Rain = 0
KPD3 200804Z 22002KT M07/M09 A3031 RMK A01 T10681087  RH  087%=      5-min Rain = 0
KPD3 200805Z 23003KT M07/M09 A3032 RMK A01 T10691088  RH  087%=      5-min Rain = 0
KPD3 200806Z 23003KT M07/M09 A3032 RMK A01 T10681086  RH  087%=      5-min Rain = 0
KPD3 200807Z 23003KT M07/M08 A3032 RMK A01 T10661083  RH  088%=      5-min Rain = 0
KPD3 200808Z 22003KT M07/M08 A3032 RMK A01 T10651082  RH  088%=      5-min Rain = 0
KPD3 200809Z 22003KT M07/M08 A3031 RMK A01 T10651084  RH  086%=      5-min Rain = 0
KPD3 200810Z 22003KT M07/M09 A3031 RMK A01 T10651085  RH  086%=      5-min Rain = 0
KPD3 200811Z 22004KT M07/M09 A3031 RMK A01 T10661086  RH  086%=      5-min Rain = 0
KPD3 200812Z 22004KT M07/M09 A3031 RMK A01 T10671087  RH  085%=      5-min Rain = 0
KPD3 200813Z 22004KT M07/M09 A3031 RMK A01 T10671087  RH  086%=      5-min Rain = 0
KPD3 200814Z 21004KT M07/M09 A3031 RMK A01 T10671087  RH  086%=      5-min Rain = 0
KPD3 200815Z 21004KT M07/M09 A3031 RMK A01 T10671087  RH  086%=      5-min Rain = 0
KPD3 200816Z 20004KT M07/M09 A3031 RMK A01 T10671087  RH  085%=      5-min Rain = 0
KPD3 200817Z 21003KT M07/M09 A3031 RMK A01 T10671087  RH  085%=      5-min Rain = 0
KPD3 200818Z 21003KT M07/M09 A3031 RMK A01 T10671087  RH  085%=      5-min Rain = 0
KPD3 200819Z 21003KT M07/M09 A3031 RMK A01 T10671088  RH  085%=      5-min Rain = 0
KPD3 200820Z 21003KT M07/M09 A3031 RMK A01 T10671089  RH  085%=      5-min Rain = 0
KPD3 200821Z 21002KT M07/M09 A3031 RMK A01 T10671088  RH  085%=      5-min Rain = 0
KPD3 200822Z 20002KT M07/M09 A3031 RMK A01 T10671088  RH  085%=      5-min Rain = 0
KPD3 200823Z 19002KT M07/M09 A3031 RMK A01 T10661086  RH  086%=      5-min Rain = 0
KPD3 200824Z 19003KT M07/M09 A3031 RMK A01 T10651085  RH  086%=      5-min Rain = 0
KPD3 200825Z 19003KT M06/M08 A303 RMK A01 T10631083  RH  086%=      5-min Rain = 0
KPD3 200826Z 19003KT M06/M08 A3031 RMK A01 T10611080  RH  086%=      5-min Rain = 0
KPD3 200827Z 19003KT M06/M08 A3031 RMK A01 T10601079  RH  086%=      5-min Rain = 0
KPD3 200828Z 19003KT M06/M08 A3031 RMK A01 T10581079  RH  085%=      5-min Rain = 0
KPD3 200829Z 20003KT M06/M08 A3031 RMK A01 T10571080  RH  084%=      5-min Rain = 0
KPD3 200830Z 20003KT M06/M08 A3031 RMK A01 T10571082  RH  083%=      5-min Rain = 0
KPD3 200831Z 20002KT M06/M08 A3031 RMK A01 T10581084  RH  082%=      5-min Rain = 0
KPD3 200832Z 19003KT M06/M09 A3031 RMK A01 T10601085  RH  082%=      5-min Rain = 0
KPD3 200833Z 19003KT M06/M09 A3031 RMK A01 T10611087  RH  082%=      5-min Rain = 0
KPD3 200834Z 19003KT M06/M09 A3031 RMK A01 T10631088  RH  083%=      5-min Rain = 0
KPD3 200835Z 19003KT M06/M09 A3031 RMK A01 T10631087  RH  083%=      5-min Rain = 0
KPD3 200836Z 19003KT M06/M08 A3031 RMK A01 T10621084  RH  085%=      5-min Rain = 0
KPD3 200837Z 18002KT M06/M08 A3031 RMK A01 T10601082  RH  085%=      5-min Rain = 0
KPD3 200838Z 17002KT M06/M08 A303 RMK A01 T10591082  RH  084%=      5-min Rain = 0
KPD3 200839Z 17002KT M06/M08 A303 RMK A01 T10591082  RH  084%=      5-min Rain = 0
KPD3 200840Z 16002KT M06/M08 A303 RMK A01 T10581082  RH  083%=      5-min Rain = 0
KPD3 200841Z 17003KT M06/M08 A303 RMK A01 T10581083  RH  083%=      5-min Rain = 0
KPD3 200842Z 17003KT M06/M08 A303 RMK A01 T10581084  RH  082%=      5-min Rain = 0
KPD3 200843Z 17004KT M06/M08 A303 RMK A01 T10581083  RH  083%=      5-min Rain = 0
KPD3 200844Z 16003KT M06/M08 A303 RMK A01 T10571081  RH  083%=      5-min Rain = 0
KPD3 200845Z 16003KT M06/M08 A303 RMK A01 T10561081  RH  083%=      5-min Rain = 0
KPD3 200846Z 16002KT M06/M08 A303 RMK A01 T10561082  RH  082%=      5-min Rain = 0
KPD3 200847Z 15002KT M06/M08 A303 RMK A01 T10561082  RH  082%=      5-min Rain = 0
KPD3 200848Z 15002KT M06/M08 A303 RMK A01 T10551081  RH  082%=      5-min Rain = 0
KPD3 200849Z 16001KT M06/M08 A303 RMK A01 T10551082  RH  082%=      5-min Rain = 0
KPD3 200850Z 17001KT M06/M08 A303 RMK A01 T10551082  RH  082%=      5-min Rain = 0
KPD3 200851Z 18001KT M06/M08 A303 RMK A01 T10551083  RH  081%=      5-min Rain = 0
KPD3 200852Z 17002KT M06/M09 A3031 RMK A01 T10581086  RH  080%=      5-min Rain = 0
KPD3 200853Z 17002KT M06/M09 A3031 RMK A01 T10611090  RH  080%=      5-min Rain = 0
KPD3 200854Z 18002KT M06/M09 A3031 RMK A01 T10631090  RH  081%=      5-min Rain = 0
KPD3 200855Z 18002KT M06/M09 A3031 RMK A01 T10641089  RH  082%=      5-min Rain = 0
KPD3 200856Z 18002KT M06/M09 A3031 RMK A01 T10631087  RH  083%=      5-min Rain = 0
KPD3 200857Z 18002KT M06/M09 A3031 RMK A01 T10631088  RH  083%=      5-min Rain = 0
KPD3 200858Z 18002KT M06/M09 A3031 RMK A01 T10641088  RH  083%=      5-min Rain = 0
KPD3 200859Z 18002KT M06/M09 A3031 RMK A01 T10641088  RH  083%=      5-min Rain = 0
KPD3 200900Z 17001KT M06/M09 A3031 RMK A01 T10641088  RH  083%=      5-min Rain = 0
KPD3 200901Z 17001KT M07/M09 A3031 RMK A01 T10651089  RH  083%=      5-min Rain = 0
KPD3 200902Z 17001KT M07/M09 A3031 RMK A01 T10661090  RH  083%=      5-min Rain = 0
KPD3 200903Z 17001KT M07/M09 A3031 RMK A01 T10661090  RH  083%=      5-min Rain = 0
KPD3 200904Z 17001KT M07/M09 A3031 RMK A01 T10661089  RH  084%=      5-min Rain = 0
KPD3 200905Z 17001KT M07/M09 A3031 RMK A01 T10671090  RH  084%=      5-min Rain = 0
KPD3 200906Z 17001KT M07/M09 A3031 RMK A01 T10681092  RH  083%=      5-min Rain = 0
KPD3 200907Z 00000KT M07/M09 A3031 RMK A01 T10691092  RH  084%=      5-min Rain = 0
KPD3 200908Z 00000KT M07/M09 A3031 RMK A01 T10691090  RH  085%=      5-min Rain = 0
KPD3 200909Z 00000KT M07/M09 A3031 RMK A01 T10671087  RH  086%=      5-min Rain = 0
KPD3 200910Z 00000KT M06/M08 A3031 RMK A01 T10641084  RH  086%=      5-min Rain = 0
KPD3 200911Z 00000KT M07/M09 A3031 RMK A01 T10651088  RH  084%=      5-min Rain = 0
KPD3 200912Z 17000KT M07/M09 A3031 RMK A01 T10661090  RH  083%=      5-min Rain = 0
KPD3 200913Z 17001KT M07/M09 A3031 RMK A01 T10671091  RH  083%=      5-min Rain = 0
KPD3 200914Z 17000KT M07/M09 A3031 RMK A01 T10671091  RH  083%=      5-min Rain = 0
KPD3 200915Z 00000KT M07/M09 A3031 RMK A01 T10681091  RH  084%=      5-min Rain = 0
KPD3 200916Z 00000KT M07/M09 A3031 RMK A01 T10691093  RH  083%=      5-min Rain = 0
KPD3 200917Z 00000KT M07/M09 A3031 RMK A01 T10701092  RH  084%=      5-min Rain = 0
KPD3 200918Z 00000KT M07/M09 A3032 RMK A01 T10701091  RH  085%=      5-min Rain = 0
KPD3 200919Z 00000KT M07/M09 A3032 RMK A01 T10701091  RH  085%=      5-min Rain = 0
KPD3 200920Z 00000KT M07/M09 A3032 RMK A01 T10711093  RH  084%=      5-min Rain = 0
KPD3 200921Z 00000KT M07/M10 A3032 RMK A01 T10731096  RH  084%=      5-min Rain = 0
KPD3 200922Z 00000KT M07/M09 A3031 RMK A01 T10711091  RH  086%=      5-min Rain = 0
KPD3 200923Z 00000KT M07/M09 A3031 RMK A01 T10711091  RH  086%=      5-min Rain = 0
KPD3 200924Z 00000KT M07/M09 A3031 RMK A01 T10711092  RH  085%=      5-min Rain = 0
KPD3 200925Z 00000KT M07/M09 A3031 RMK A01 T10711092  RH  085%=      5-min Rain = 0
KPD3 200926Z 00000KT M07/M09 A3031 RMK A01 T10711091  RH  086%=      5-min Rain = 0
KPD3 200927Z 00000KT M07/M09 A3031 RMK A01 T10691088  RH  086%=      5-min Rain = 0
KPD3 200928Z 00000KT M07/M09 A3031 RMK A01 T10671086  RH  087%=      5-min Rain = 0
KPD3 200929Z 00000KT M07/M09 A3031 RMK A01 T10661087  RH  085%=      5-min Rain = 0
KPD3 200930Z 00000KT M07/M09 A3031 RMK A01 T10671090  RH  084%=      5-min Rain = 0
KPD3 200931Z 00000KT M07/M09 A3031 RMK A01 T10671090  RH  084%=      5-min Rain = 0
KPD3 200932Z 00000KT M07/M09 A3031 RMK A01 T10671088  RH  085%=      5-min Rain = 0
KPD3 200933Z 17000KT M07/M09 A3031 RMK A01 T10661085  RH  086%=      5-min Rain = 0
KPD3 200934Z 17001KT M06/M08 A3031 RMK A01 T10621079  RH  088%=      5-min Rain = 0
KPD3 200935Z 17001KT M06/M08 A3031 RMK A01 T10581075  RH  088%=      5-min Rain = 0
KPD3 200936Z 19002KT M06/M08 A3031 RMK A01 T10561075  RH  087%=      5-min Rain = 0
KPD3 200937Z 19002KT M06/M08 A3031 RMK A01 T10551075  RH  085%=      5-min Rain = 0
KPD3 200938Z 18002KT M05/M08 A3031 RMK A01 T10541076  RH  084%=      5-min Rain = 0
KPD3 200939Z 18002KT M05/M08 A303 RMK A01 T10541078  RH  083%=      5-min Rain = 0
KPD3 200940Z 19002KT M06/M08 A303 RMK A01 T10561081  RH  082%=      5-min Rain = 0
KPD3 200941Z 20002KT M06/M09 A303 RMK A01 T10591086  RH  081%=      5-min Rain = 0
KPD3 200942Z 20002KT M06/M09 A303 RMK A01 T10611086  RH  082%=      5-min Rain = 0
KPD3 200943Z 21002KT M06/M09 A3031 RMK A01 T10631086  RH  083%=      5-min Rain = 0
KPD3 200944Z 21002KT M07/M09 A3031 RMK A01 T10661091  RH  082%=      5-min Rain = 0
KPD3 200945Z 22002KT M07/M10 A3031 RMK A01 T10701097  RH  082%=      5-min Rain = 0
KPD3 200946Z 23002KT M07/M10 A3031 RMK A01 T10721096  RH  083%=      5-min Rain = 0
KPD3 200947Z 24002KT M07/M10 A3031 RMK A01 T10741096  RH  084%=      5-min Rain = 0
KPD3 200948Z 25002KT M08/M10 A3031 RMK A01 T10761098  RH  084%=      5-min Rain = 0
KPD3 200949Z 26001KT M08/M10 A3031 RMK A01 T10761097  RH  085%=      5-min Rain = 0
KPD3 200950Z 26001KT M08/M10 A3031 RMK A01 T10761095  RH  086%=      5-min Rain = 0
KPD3 200951Z 26002KT M08/M09 A3031 RMK A01 T10761093  RH  087%=      5-min Rain = 0
KPD3 200952Z 26002KT M08/M09 A3031 RMK A01 T10751093  RH  087%=      5-min Rain = 0
KPD3 200953Z 26002KT M08/M09 A3031 RMK A01 T10751093  RH  087%=      5-min Rain = 0
KPD3 200954Z 26002KT M08/M09 A3031 RMK A01 T10751093  RH  087%=      5-min Rain = 0
KPD3 200955Z 26002KT M08/M09 A3031 RMK A01 T10751093  RH  087%=      5-min Rain = 0
KPD3 200956Z 25002KT M08/M09 A3031 RMK A01 T10751093  RH  087%=      5-min Rain = 0
KPD3 200957Z 25003KT M08/M09 A3031 RMK A01 T10751094  RH  086%=      5-min Rain = 0
KPD3 200958Z 25003KT M08/M10 A3031 RMK A01 T10771097  RH  085%=      5-min Rain = 0
KPD3 200959Z 25003KT M08/M10 A3031 RMK A01 T10791100  RH  085%=      5-min Rain = 0
KPD3 201000Z 25003KT M08/M10 A3031 RMK A01 T10801101  RH  085%=      5-min Rain = 0
KPD3 201001Z 24003KT M08/M10 A3031 RMK A01 T10811102  RH  085%=      5-min Rain = 0
KPD3 201002Z 24003KT M08/M10 A3031 RMK A01 T10811101  RH  085%=      5-min Rain = 0
KPD3 201003Z 23003KT M08/M10 A3031 RMK A01 T10801100  RH  086%=      5-min Rain = 0
KPD3 201004Z 21002KT M08/M10 A3031 RMK A01 T10801098  RH  087%=      5-min Rain = 0
KPD3 201005Z 21003KT M08/M10 A3031 RMK A01 T10791097  RH  087%=      5-min Rain = 0
KPD3 201006Z 21003KT M08/M10 A3031 RMK A01 T10781097  RH  086%=      5-min Rain = 0
KPD3 201007Z 21003KT M08/M10 A3031 RMK A01 T10791099  RH  086%=      5-min Rain = 0
KPD3 201008Z 21003KT M08/M10 A303 RMK A01 T10801099  RH  086%=      5-min Rain = 0
KPD3 201009Z 21003KT M08/M10 A303 RMK A01 T10791099  RH  086%=      5-min Rain = 0
KPD3 201010Z 21003KT M08/M10 A303 RMK A01 T10791098  RH  086%=      5-min Rain = 0
KPD3 201011Z 21003KT M08/M10 A303 RMK A01 T10781097  RH  086%=      5-min Rain = 0
KPD3 201012Z 21003KT M08/M10 A303 RMK A01 T10781097  RH  086%=      5-min Rain = 0
KPD3 201013Z 20003KT M08/M10 A303 RMK A01 T10781097  RH  086%=      5-min Rain = 0
KPD3 201014Z 20003KT M08/M10 A303 RMK A01 T10761095  RH  086%=      5-min Rain = 0
KPD3 201015Z 20003KT M08/M09 A303 RMK A01 T10751094  RH  087%=      5-min Rain = 0
KPD3 201016Z 19003KT M08/M09 A303 RMK A01 T10751094  RH  086%=      5-min Rain = 0
KPD3 201017Z 20003KT M07/M09 A303 RMK A01 T10741093  RH  086%=      5-min Rain = 0
KPD3 201018Z 19003KT M07/M09 A3029 RMK A01 T10731092  RH  086%=      5-min Rain = 0
KPD3 201019Z 19003KT M07/M09 A3029 RMK A01 T10711090  RH  086%=      5-min Rain = 0
KPD3 201020Z 19003KT M07/M09 A3029 RMK A01 T10691089  RH  086%=      5-min Rain = 0
KPD3 201021Z 19003KT M07/M09 A3029 RMK A01 T10691091  RH  084%=      5-min Rain = 0
KPD3 201022Z 20003KT M07/M09 A3029 RMK A01 T10701092  RH  084%=      5-min Rain = 0
KPD3 201023Z 20003KT M07/M09 A3029 RMK A01 T10701092  RH  084%=      5-min Rain = 0
KPD3 201024Z 20003KT M07/M10 A3029 RMK A01 T10721095  RH  083%=      5-min Rain = 0
KPD3 201025Z 20002KT M07/M10 A3029 RMK A01 T10731097  RH  083%=      5-min Rain = 0
KPD3 201026Z 20002KT M08/M10 A3029 RMK A01 T10751099  RH  083%=      5-min Rain = 0
KPD3 201027Z 20002KT M08/M10 A3029 RMK A01 T10761098  RH  084%=      5-min Rain = 0
KPD3 201028Z 20002KT M08/M10 A303 RMK A01 T10761097  RH  085%=      5-min Rain = 0
KPD3 201029Z 20002KT M08/M10 A303 RMK A01 T10761096  RH  085%=      5-min Rain = 0
KPD3 201030Z 20002KT M07/M09 A303 RMK A01 T10741093  RH  086%=      5-min Rain = 0
KPD3 201031Z 20002KT M07/M09 A303 RMK A01 T10721091  RH  086%=      5-min Rain = 0
KPD3 201032Z 20002KT M07/M09 A3029 RMK A01 T10711092  RH  085%=      5-min Rain = 0
KPD3 201033Z 20002KT M07/M09 A3029 RMK A01 T10711093  RH  084%=      5-min Rain = 0
KPD3 201034Z 21002KT M07/M10 A3029 RMK A01 T10721095  RH  084%=      5-min Rain = 0
KPD3 201035Z 21002KT M07/M10 A3029 RMK A01 T10731096  RH  083%=      5-min Rain = 0
KPD3 201036Z 21002KT M07/M10 A3029 RMK A01 T10741097  RH  084%=      5-min Rain = 0
KPD3 201037Z 21002KT M07/M10 A3029 RMK A01 T10741097  RH  084%=      5-min Rain = 0
KPD3 201038Z 22002KT M08/M10 A3029 RMK A01 T10751097  RH  084%=      5-min Rain = 0
KPD3 201039Z 22002KT M08/M10 A3029 RMK A01 T10751097  RH  084%=      5-min Rain = 0
KPD3 201040Z 22002KT M08/M10 A3028 RMK A01 T10751097  RH  085%=      5-min Rain = 0
KPD3 201041Z 22002KT M08/M10 A3029 RMK A01 T10751097  RH  085%=      5-min Rain = 0
KPD3 201042Z 22002KT M08/M10 A3029 RMK A01 T10751097  RH  085%=      5-min Rain = 0
KPD3 201043Z 21003KT M08/M10 A3029 RMK A01 T10751097  RH  085%=      5-min Rain = 0
KPD3 201044Z 22003KT M08/M10 A3028 RMK A01 T10761099  RH  084%=      5-min Rain = 0
KPD3 201045Z 23003KT M08/M10 A3028 RMK A01 T10781102  RH  083%=      5-min Rain = 0
KPD3 201046Z 24003KT M08/M10 A3028 RMK A01 T10781101  RH  084%=      5-min Rain = 0
KPD3 201047Z 24004KT M08/M10 A3028 RMK A01 T10791101  RH  084%=      5-min Rain = 0
KPD3 201048Z 24004KT M08/M10 A3028 RMK A01 T10791100  RH  085%=      5-min Rain = 0
KPD3 201049Z 24003KT M08/M10 A3028 RMK A01 T10771097  RH  086%=      5-min Rain = 0
KPD3 201050Z 24003KT M08/M10 A3028 RMK A01 T10761095  RH  086%=      5-min Rain = 0
KPD3 201051Z 25003KT M08/M10 A3027 RMK A01 T10751095  RH  086%=      5-min Rain = 0
KPD3 201052Z 24004KT M07/M10 A3028 RMK A01 T10741095  RH  085%=      5-min Rain = 0
KPD3 201053Z 25004KT M07/M10 A3028 RMK A01 T10741095  RH  085%=      5-min Rain = 0
KPD3 201054Z 25004KT M07/M09 A3028 RMK A01 T10731094  RH  085%=      5-min Rain = 0
KPD3 201055Z 26004KT M07/M09 A3028 RMK A01 T10721092  RH  085%=      5-min Rain = 0
KPD3 201056Z 26004KT M07/M09 A3028 RMK A01 T10711092  RH  085%=      5-min Rain = 0
KPD3 201057Z 26004KT M07/M09 A3028 RMK A01 T10701092  RH  085%=      5-min Rain = 0
KPD3 201058Z 26004KT M07/M09 A3028 RMK A01 T10691091  RH  085%=      5-min Rain = 0
KPD3 201059Z 26004KT M07/M09 A3028 RMK A01 T10681090  RH  084%=      5-min Rain = 0
KPD3 201100Z 26004KT M07/M09 A3028 RMK A01 T10681090  RH  084%=      5-min Rain = 0
KPD3 201101Z 25004KT M07/M09 A3028 RMK A01 T10661088  RH  084%=      5-min Rain = 0
KPD3 201102Z 25004KT M07/M09 A3028 RMK A01 T10651088  RH  084%=      5-min Rain = 0
KPD3 201103Z 25004KT M07/M09 A3028 RMK A01 T10651090  RH  082%=      5-min Rain = 0
KPD3 201104Z 25004KT M07/M09 A3027 RMK A01 T10651091  RH  082%=      5-min Rain = 0
KPD3 201105Z 25004KT M07/M09 A3027 RMK A01 T10661092  RH  082%=      5-min Rain = 0
KPD3 201106Z 26004KT M07/M09 A3027 RMK A01 T10671092  RH  082%=      5-min Rain = 0
KPD3 201107Z 26003KT M07/M09 A3027 RMK A01 T10671091  RH  083%=      5-min Rain = 0
KPD3 201108Z 26003KT M07/M09 A3027 RMK A01 T10661090  RH  083%=      5-min Rain = 0
KPD3 201109Z 26003KT M07/M09 A3027 RMK A01 T10651089  RH  083%=      5-min Rain = 0
KPD3 201110Z 25003KT M06/M09 A3028 RMK A01 T10641089  RH  083%=      5-min Rain = 0
KPD3 201111Z 26003KT M06/M09 A3028 RMK A01 T10641088  RH  083%=      5-min Rain = 0
KPD3 201112Z 25003KT M06/M09 A3028 RMK A01 T10631087  RH  083%=      5-min Rain = 0
KPD3 201113Z 25003KT M06/M09 A3028 RMK A01 T10621088  RH  082%=      5-min Rain = 0
KPD3 201114Z 26004KT M06/M09 A3028 RMK A01 T10631089  RH  082%=      5-min Rain = 0
KPD3 201115Z 26003KT M06/M09 A3027 RMK A01 T10621089  RH  082%=      5-min Rain = 0
KPD3 201116Z 26003KT M06/M09 A3027 RMK A01 T10631089  RH  082%=      5-min Rain = 0
KPD3 201117Z 26003KT M06/M09 A3027 RMK A01 T10621089  RH  082%=      5-min Rain = 0
KPD3 201118Z 26003KT M06/M09 A3027 RMK A01 T10631089  RH  082%=      5-min Rain = 0
KPD3 201119Z 25003KT M06/M09 A3027 RMK A01 T10621087  RH  082%=      5-min Rain = 0
KPD3 201120Z 25003KT M06/M09 A3027 RMK A01 T10621087  RH  082%=      5-min Rain = 0
KPD3 201121Z 25003KT M06/M09 A3027 RMK A01 T10621087  RH  082%=      5-min Rain = 0
KPD3 201122Z 25003KT M06/M09 A3027 RMK A01 T10611088  RH  082%=      5-min Rain = 0
KPD3 201123Z 25003KT M06/M09 A3027 RMK A01 T10611087  RH  082%=      5-min Rain = 0
KPD3 201124Z 25003KT M06/M09 A3027 RMK A01 T10601087  RH  081%=      5-min Rain = 0
KPD3 201125Z 24003KT M06/M09 A3027 RMK A01 T10581085  RH  081%=      5-min Rain = 0
KPD3 201126Z 24003KT M06/M09 A3027 RMK A01 T10571086  RH  080%=      5-min Rain = 0
KPD3 201127Z 23003KT M06/M09 A3027 RMK A01 T10571087  RH  079%=      5-min Rain = 0
KPD3 201128Z 23003KT M06/M09 A3027 RMK A01 T10581089  RH  079%=      5-min Rain = 0
KPD3 201129Z 23003KT M06/M09 A3027 RMK A01 T10591089  RH  079%=      5-min Rain = 0
KPD3 201130Z 24003KT M06/M09 A3027 RMK A01 T10591088  RH  080%=      5-min Rain = 0
KPD3 201131Z 24004KT M06/M09 A3027 RMK A01 T10591089  RH  079%=      5-min Rain = 0
KPD3 201132Z 24004KT M06/M09 A3027 RMK A01 T10591090  RH  079%=      5-min Rain = 0
KPD3 201133Z 25004KT M06/M09 A3027 RMK A01 T10611091  RH  079%=      5-min Rain = 0
KPD3 201134Z 26003KT M06/M09 A3027 RMK A01 T10621092  RH  079%=      5-min Rain = 0
KPD3 201135Z 25003KT M06/M09 A3027 RMK A01 T10631092  RH  080%=      5-min Rain = 0
KPD3 201136Z 26003KT M06/M09 A3026 RMK A01 T10631091  RH  081%=      5-min Rain = 0
KPD3 201137Z 25003KT M06/M09 A3026 RMK A01 T10631090  RH  081%=      5-min Rain = 0
KPD3 201138Z 26003KT M06/M09 A3026 RMK A01 T10591086  RH  081%=      5-min Rain = 0
KPD3 201139Z 25003KT M06/M08 A3026 RMK A01 T10561084  RH  081%=      5-min Rain = 0
KPD3 201140Z 24003KT M05/M08 A3026 RMK A01 T10531083  RH  079%=      5-min Rain = 0
KPD3 201141Z 23003KT M05/M08 A3026 RMK A01 T10511083  RH  078%=      5-min Rain = 0
KPD3 201142Z 22003KT M05/M08 A3026 RMK A01 T10491084  RH  077%=      5-min Rain = 0
KPD3 201143Z 22003KT M05/M08 A3026 RMK A01 T10491084  RH  076%=      5-min Rain = 0
KPD3 201144Z 23003KT M05/M09 A3026 RMK A01 T10481085  RH  076%=      5-min Rain = 0
KPD3 201145Z 24003KT M05/M09 A3026 RMK A01 T10471085  RH  075%=      5-min Rain = 0
KPD3 201146Z 25003KT M05/M09 A3026 RMK A01 T10471085  RH  075%=      5-min Rain = 0
KPD3 201147Z 25004KT M05/M09 A3026 RMK A01 T10461085  RH  074%=      5-min Rain = 0
KPD3 201148Z 25004KT M05/M09 A3026 RMK A01 T10461085  RH  074%=      5-min Rain = 0
KPD3 201149Z 25004KT M04/M08 A3026 RMK A01 T10441084  RH  074%=      5-min Rain = 0
KPD3 201150Z 23003KT M04/M08 A3026 RMK A01 T10441084  RH  073%=      5-min Rain = 0
KPD3 201151Z 23003KT M04/M09 A3026 RMK A01 T10441085  RH  073%=      5-min Rain = 0
KPD3 201152Z 22003KT M04/M09 A3026 RMK A01 T10441085  RH  073%=      5-min Rain = 0
KPD3 201153Z 21002KT M04/M09 A3026 RMK A01 T10441085  RH  073%=      5-min Rain = 0
KPD3 201154Z 21001KT M05/M09 A3026 RMK A01 T10451086  RH  073%=      5-min Rain = 0
KPD3 201155Z 21001KT M05/M09 A3026 RMK A01 T10461088  RH  073%=      5-min Rain = 0
KPD3 201156Z 21000KT M05/M09 A3025 RMK A01 T10471088  RH  073%=      5-min Rain = 0
KPD3 201157Z 23001KT M05/M09 A3025 RMK A01 T10471087  RH  074%=      5-min Rain = 0
KPD3 201158Z 24001KT M05/M09 A3025 RMK A01 T10481088  RH  074%=      5-min Rain = 0
KPD3 201159Z 24001KT M05/M09 A3026 RMK A01 T10511091  RH  074%=      5-min Rain = 0
KPD3 201200Z 23001KT M05/M09 A3026 RMK A01 T10541092  RH  075%=      5-min Rain = 0
KPD3 201201Z 23001KT M06/M09 A3026 RMK A01 T10561092  RH  076%=      5-min Rain = 0
KPD3 201202Z 23001KT M06/M09 A3026 RMK A01 T10571091  RH  077%=      5-min Rain = 0
KPD3 201203Z 00000KT M06/M09 A3026 RMK A01 T10571089  RH  078%=      5-min Rain = 0
KPD3 201204Z 27000KT M06/M09 A3026 RMK A01 T10561088  RH  078%=      5-min Rain = 0
KPD3 201205Z 27001KT M06/M09 A3026 RMK A01 T10551087  RH  078%=      5-min Rain = 0
KPD3 201206Z 27001KT M05/M09 A3025 RMK A01 T10531085  RH  078%=      5-min Rain = 0
KPD3 201207Z 27002KT M05/M09 A3025 RMK A01 T10511085  RH  077%=      5-min Rain = 0
KPD3 201208Z 27002KT M05/M09 A3025 RMK A01 T10501085  RH  076%=      5-min Rain = 0
KPD3 201209Z 27002KT M05/M09 A3025 RMK A01 T10501087  RH  076%=      5-min Rain = 0
KPD3 201210Z 27002KT M05/M09 A3025 RMK A01 T10541090  RH  076%=      5-min Rain = 0
KPD3 201211Z 29002KT M06/M09 A3025 RMK A01 T10561090  RH  077%=      5-min Rain = 0
KPD3 201212Z 28002KT M06/M09 A3026 RMK A01 T10581091  RH  078%=      5-min Rain = 0
KPD3 201213Z 28002KT M06/M09 A3026 RMK A01 T10591091  RH  078%=      5-min Rain = 0
KPD3 201214Z 26002KT M06/M09 A3026 RMK A01 T10591089  RH  079%=      5-min Rain = 0
KPD3 201215Z 26001KT M06/M09 A3026 RMK A01 T10581088  RH  079%=      5-min Rain = 0
KPD3 201216Z 26001KT M06/M09 A3025 RMK A01 T10581089  RH  079%=      5-min Rain = 0
KPD3 201217Z 26001KT M06/M09 A3025 RMK A01 T10591090  RH  079%=      5-min Rain = 0
KPD3 201218Z 27002KT M06/M09 A3025 RMK A01 T10591090  RH  079%=      5-min Rain = 0
KPD3 201219Z 27002KT M06/M09 A3025 RMK A01 T10591088  RH  080%=      5-min Rain = 0
KPD3 201220Z 27002KT M06/M09 A3025 RMK A01 T10561086  RH  080%=      5-min Rain = 0
KPD3 201221Z 26002KT M05/M09 A3025 RMK A01 T10541085  RH  079%=      5-min Rain = 0
KPD3 201222Z 24003KT M05/M09 A3025 RMK A01 T10541085  RH  078%=      5-min Rain = 0
KPD3 201223Z 24003KT M05/M09 A3025 RMK A01 T10531086  RH  078%=      5-min Rain = 0
KPD3 201224Z 24003KT M05/M09 A3025 RMK A01 T10521085  RH  077%=      5-min Rain = 0
KPD3 201225Z 23003KT M05/M09 A3025 RMK A01 T10521086  RH  077%=      5-min Rain = 0
KPD3 201226Z 22003KT M05/M09 A3025 RMK A01 T10511086  RH  077%=      5-min Rain = 0
KPD3 201227Z 22003KT M05/M09 A3025 RMK A01 T10521087  RH  077%=      5-min Rain = 0
KPD3 201228Z 22003KT M05/M09 A3025 RMK A01 T10521087  RH  077%=      5-min Rain = 0
KPD3 201229Z 22003KT M05/M09 A3025 RMK A01 T10521086  RH  077%=      5-min Rain = 0
KPD3 201230Z 22003KT M05/M09 A3025 RMK A01 T10531087  RH  077%=      5-min Rain = 0
KPD3 201231Z 23003KT M05/M09 A3025 RMK A01 T10531087  RH  077%=      5-min Rain = 0
KPD3 201232Z 23003KT M05/M09 A3025 RMK A01 T10531087  RH  077%=      5-min Rain = 0
KPD3 201233Z 24003KT M05/M09 A3025 RMK A01 T10541088  RH  077%=      5-min Rain = 0
KPD3 201234Z 24002KT M06/M09 A3025 RMK A01 T10571091  RH  076%=      5-min Rain = 0
KPD3 201235Z 24002KT M06/M09 A3025 RMK A01 T10601094  RH  077%=      5-min Rain = 0
KPD3 201236Z 24002KT M06/M10 A3025 RMK A01 T10631095  RH  078%=      5-min Rain = 0
KPD3 201237Z 23002KT M06/M09 A3025 RMK A01 T10641094  RH  079%=      5-min Rain = 0
KPD3 201238Z 23002KT M06/M09 A3025 RMK A01 T10641093  RH  080%=      5-min Rain = 0
KPD3 201239Z 23003KT M06/M09 A3025 RMK A01 T10631090  RH  081%=      5-min Rain = 0
KPD3 201240Z 23003KT M06/M09 A3025 RMK A01 T10621089  RH  081%=      5-min Rain = 0
KPD3 201241Z 23003KT M06/M09 A3025 RMK A01 T10611088  RH  081%=      5-min Rain = 0
KPD3 201242Z 23004KT M06/M09 A3025 RMK A01 T10611090  RH  080%=      5-min Rain = 0
KPD3 201243Z 23004KT M06/M09 A3025 RMK A01 T10621093  RH  079%=      5-min Rain = 0
KPD3 201244Z 23004KT M07/M10 A3025 RMK A01 T10651096  RH  079%=      5-min Rain = 0
KPD3 201245Z 23004KT M07/M10 A3025 RMK A01 T10671096  RH  080%=      5-min Rain = 0
KPD3 201246Z 23004KT M07/M10 A3025 RMK A01 T10691097  RH  081%=      5-min Rain = 0
KPD3 201247Z 22004KT M07/M10 A3025 RMK A01 T10691096  RH  081%=      5-min Rain = 0
KPD3 201248Z 22004KT M07/M10 A3025 RMK A01 T10701095  RH  082%=      5-min Rain = 0
KPD3 201249Z 22004KT M07/M09 A3025 RMK A01 T10691094  RH  083%=      5-min Rain = 0
KPD3 201250Z 21004KT M07/M09 A3025 RMK A01 T10691093  RH  083%=      5-min Rain = 0
KPD3 201251Z 21004KT M07/M09 A3025 RMK A01 T10691093  RH  083%=      5-min Rain = 0
KPD3 201252Z 21004KT M07/M09 A3025 RMK A01 T10691093  RH  083%=      5-min Rain = 0
KPD3 201253Z 21004KT M07/M09 A3025 RMK A01 T10691093  RH  083%=      5-min Rain = 0
KPD3 201254Z 22004KT M07/M09 A3025 RMK A01 T10691092  RH  083%=      5-min Rain = 0
KPD3 201255Z 22005KT M07/M09 A3025 RMK A01 T10691093  RH  083%=      5-min Rain = 0
KPD3 201256Z 23005KT M07/M09 A3025 RMK A01 T10691093  RH  083%=      5-min Rain = 0
KPD3 201257Z 23005KT M07/M09 A3025 RMK A01 T10701094  RH  083%=      5-min Rain = 0
KPD3 201258Z 23006KT M07/M10 A3025 RMK A01 T10711095  RH  083%=      5-min Rain = 0
KPD3 201259Z 23006KT M07/M10 A3025 RMK A01 T10711095  RH  084%=      5-min Rain = 0
KPD3 201300Z 23006KT M07/M10 A3025 RMK A01 T10721095  RH  084%=      5-min Rain = 0
KPD3 201301Z 23005KT M07/M09 A3025 RMK A01 T10721094  RH  084%=      5-min Rain = 0
KPD3 201302Z 23005KT M07/M09 A3026 RMK A01 T10721093  RH  085%=      5-min Rain = 0
KPD3 201303Z 23005KT M07/M09 A3026 RMK A01 T10721093  RH  085%=      5-min Rain = 0
KPD3 201304Z 23005KT M07/M09 A3026 RMK A01 T10721092  RH  086%=      5-min Rain = 0
KPD3 201305Z 22005KT M07/M09 A3026 RMK A01 T10721092  RH  086%=      5-min Rain = 0
KPD3 201306Z 22005KT M07/M09 A3026 RMK A01 T10721092  RH  086%=      5-min Rain = 0
KPD3 201307Z 23005KT M07/M09 A3025 RMK A01 T10721092  RH  086%=      5-min Rain = 0
KPD3 201308Z 23005KT M07/M09 A3025 RMK A01 T10721091  RH  086%=      5-min Rain = 0
KPD3 201309Z 23005KT M07/M09 A3025 RMK A01 T10711090  RH  086%=      5-min Rain = 0
KPD3 201310Z 23005KT M07/M09 A3025 RMK A01 T10701089  RH  086%=      5-min Rain = 0
KPD3 201311Z 23004KT M07/M09 A3025 RMK A01 T10701089  RH  086%=      5-min Rain = 0
KPD3 201312Z 22004KT M07/M09 A3025 RMK A01 T10691089  RH  086%=      5-min Rain = 0
KPD3 201313Z 23005KT M07/M09 A3026 RMK A01 T10691089  RH  086%=      5-min Rain = 0
KPD3 201314Z 23005KT M07/M09 A3026 RMK A01 T10681088  RH  086%=      5-min Rain = 0
KPD3 201315Z 23005KT M07/M09 A3026 RMK A01 T10671087  RH  086%=      5-min Rain = 0
KPD3 201316Z 23006KT M07/M09 A3026 RMK A01 T10671087  RH  086%=      5-min Rain = 0
KPD3 201317Z 23006KT M07/M09 A3026 RMK A01 T10671087  RH  086%=      5-min Rain = 0
KPD3 201318Z 23006KT M07/M08 A3026 RMK A01 T10651084  RH  086%=      5-min Rain = 0
KPD3 201319Z 23006KT M06/M08 A3026 RMK A01 T10621081  RH  086%=      5-min Rain = 0
KPD3 201320Z 22006KT M06/M08 A3026 RMK A01 T10601082  RH  085%=      5-min Rain = 0
KPD3 201321Z 22007KT M06/M08 A3026 RMK A01 T10591082  RH  084%=      5-min Rain = 0
KPD3 201322Z 22006KT M06/M08 A3026 RMK A01 T10581083  RH  082%=      5-min Rain = 0
KPD3 201323Z 22006KT M06/M09 A3026 RMK A01 T10601088  RH  081%=      5-min Rain = 0
KPD3 201324Z 22006KT M06/M09 A3026 RMK A01 T10621089  RH  081%=      5-min Rain = 0
KPD3 201325Z 22006KT M06/M09 A3026 RMK A01 T10631089  RH  082%=      5-min Rain = 0
KPD3 201326Z 22006KT M06/M09 A3026 RMK A01 T10631088  RH  082%=      5-min Rain = 0
KPD3 201327Z 22006KT M06/M09 A3026 RMK A01 T10631087  RH  083%=      5-min Rain = 0
KPD3 201328Z 22006KT M06/M09 A3026 RMK A01 T10631087  RH  083%=      5-min Rain = 0
KPD3 201329Z 21005KT M06/M09 A3026 RMK A01 T10631087  RH  084%=      5-min Rain = 0
KPD3 201330Z 21005KT M06/M09 A3026 RMK A01 T10641087  RH  084%=      5-min Rain = 0
KPD3 201331Z 21005KT M06/M09 A3026 RMK A01 T10641087  RH  084%=      5-min Rain = 0
KPD3 201332Z 21005KT M06/M09 A3026 RMK A01 T10641087  RH  084%=      5-min Rain = 0
KPD3 201333Z 20005KT M06/M09 A3026 RMK A01 T10641087  RH  084%=      5-min Rain = 0
KPD3 201334Z 20005KT M06/M09 A3026 RMK A01 T10641087  RH  084%=      5-min Rain = 0
KPD3 201335Z 20005KT M06/M09 A3026 RMK A01 T10641087  RH  084%=      5-min Rain = 0
KPD3 201336Z 21005KT M06/M09 A3026 RMK A01 T10641087  RH  084%=      5-min Rain = 0
KPD3 201337Z 21005KT M06/M09 A3026 RMK A01 T10641086  RH  084%=      5-min Rain = 0
KPD3 201338Z 21005KT M06/M09 A3026 RMK A01 T10641086  RH  084%=      5-min Rain = 0
KPD3 201339Z 20005KT M06/M09 A3026 RMK A01 T10631086  RH  084%=      5-min Rain = 0
KPD3 201340Z 20005KT M06/M09 A3026 RMK A01 T10631087  RH  084%=      5-min Rain = 0
KPD3 201341Z 20005KT M06/M09 A3026 RMK A01 T10631086  RH  084%=      5-min Rain = 0
KPD3 201342Z 21005KT M06/M08 A3026 RMK A01 T10611084  RH  084%=      5-min Rain = 0
KPD3 201343Z 21004KT M06/M08 A3026 RMK A01 T10591082  RH  084%=      5-min Rain = 0
KPD3 201344Z 22004KT M06/M08 A3026 RMK A01 T10571081  RH  083%=      5-min Rain = 0
KPD3 201345Z 22005KT M06/M08 A3026 RMK A01 T10561081  RH  083%=      5-min Rain = 0
KPD3 201346Z 22005KT M05/M08 A3026 RMK A01 T10541080  RH  082%=      5-min Rain = 0
KPD3 201347Z 22005KT M05/M08 A3026 RMK A01 T10521079  RH  081%=      5-min Rain = 0
KPD3 201348Z 22005KT M05/M08 A3026 RMK A01 T10511079  RH  080%=      5-min Rain = 0
KPD3 201349Z 22005KT M05/M08 A3026 RMK A01 T10511081  RH  079%=      5-min Rain = 0
KPD3 201350Z 22005KT M05/M08 A3026 RMK A01 T10501081  RH  079%=      5-min Rain = 0
KPD3 201351Z 22005KT M05/M08 A3025 RMK A01 T10501081  RH  079%=      5-min Rain = 0
KPD3 201352Z 23005KT M05/M08 A3025 RMK A01 T10511081  RH  079%=      5-min Rain = 0
KPD3 201353Z 23005KT M05/M08 A3025 RMK A01 T10511081  RH  079%=      5-min Rain = 0
KPD3 201354Z 23004KT M05/M08 A3025 RMK A01 T10521082  RH  079%=      5-min Rain = 0
KPD3 201355Z 23004KT M05/M08 A3025 RMK A01 T10531084  RH  079%=      5-min Rain = 0
KPD3 201356Z 23004KT M05/M09 A3025 RMK A01 T10541086  RH  079%=      5-min Rain = 0
KPD3 201357Z 23004KT M06/M09 A3025 RMK A01 T10561088  RH  078%=      5-min Rain = 0
KPD3 201358Z 22004KT M06/M09 A3025 RMK A01 T10601092  RH  078%=      5-min Rain = 0
KPD3 201359Z 22003KT M06/M10 A3025 RMK A01 T10641095  RH  079%=      5-min Rain = 0
KPD3 201400Z 22003KT M07/M10 A3025 RMK A01 T10671096  RH  080%=      5-min Rain = 0
KPD3 201401Z 21004KT M07/M10 A3025 RMK A01 T10691098  RH  080%=      5-min Rain = 0
KPD3 201402Z 22004KT M07/M10 A3025 RMK A01 T10721099  RH  081%=      5-min Rain = 0
KPD3 201403Z 22004KT M07/M10 A3025 RMK A01 T10731098  RH  082%=      5-min Rain = 0
KPD3 201404Z 22005KT M07/M10 A3025 RMK A01 T10731098  RH  083%=      5-min Rain = 0
KPD3 201405Z 22005KT M07/M10 A3025 RMK A01 T10731096  RH  084%=      5-min Rain = 0
KPD3 201406Z 22005KT M07/M10 A3025 RMK A01 T10741096  RH  084%=      5-min Rain = 0
KPD3 201407Z 22005KT M07/M10 A3025 RMK A01 T10731095  RH  084%=      5-min Rain = 0
KPD3 201408Z 22005KT M07/M10 A3025 RMK A01 T10731095  RH  084%=      5-min Rain = 0
KPD3 201409Z 22005KT M07/M09 A3025 RMK A01 T10721093  RH  085%=      5-min Rain = 0
KPD3 201410Z 22005KT M07/M09 A3025 RMK A01 T10691089  RH  086%=      5-min Rain = 0
KPD3 201411Z 22005KT M07/M09 A3025 RMK A01 T10671085  RH  087%=      5-min Rain = 0
KPD3 201412Z 23005KT M06/M08 A3025 RMK A01 T10631081  RH  088%=      5-min Rain = 0
KPD3 201413Z 23005KT M06/M08 A3025 RMK A01 T10591075  RH  088%=      5-min Rain = 0
KPD3 201414Z 23005KT M05/M07 A3025 RMK A01 T10541071  RH  088%=      5-min Rain = 0
KPD3 201415Z 24006KT M05/M07 A3025 RMK A01 T10511069  RH  087%=      5-min Rain = 0
KPD3 201416Z 24007KT M05/M07 A3025 RMK A01 T10471066  RH  087%=      5-min Rain = 0
KPD3 201417Z 24008KT M04/M06 A3025 RMK A01 T10411061  RH  086%=      5-min Rain = 0
KPD3 201418Z 24007KT M04/M06 A3025 RMK A01 T10351059  RH  084%=      5-min Rain = 0
KPD3 201419Z 24007KT M03/M06 A3026 RMK A01 T10321060  RH  081%=      5-min Rain = 0
KPD3 201420Z 23008KT M03/M06 A3026 RMK A01 T10291060  RH  079%=      5-min Rain = 0
KPD3 201421Z 23007KT M03/M06 A3026 RMK A01 T10271060  RH  078%=      5-min Rain = 0
KPD3 201422Z 23007KT M03/M06 A3026 RMK A01 T10261061  RH  077%=      5-min Rain = 0
KPD3 201423Z 23007KT M03/M06 A3025 RMK A01 T10251061  RH  076%=      5-min Rain = 0
KPD3 201424Z 23008KT M03/M06 A3025 RMK A01 T10251061  RH  076%=      5-min Rain = 0
KPD3 201425Z 23008KT M02/M06 A3025 RMK A01 T10241061  RH  075%=      5-min Rain = 0
KPD3 201426Z 23008KT M02/M06 A3025 RMK A01 T10231061  RH  075%=      5-min Rain = 0
KPD3 201427Z 23007KT M02/M06 A3025 RMK A01 T10221061  RH  075%=      5-min Rain = 0
KPD3 201428Z 23007KT M02/M06 A3025 RMK A01 T10221060  RH  075%=      5-min Rain = 0
KPD3 201429Z 23008KT M02/M06 A3025 RMK A01 T10221059  RH  076%=      5-min Rain = 0
KPD3 201430Z 23007KT M02/M06 A3026 RMK A01 T10211059  RH  076%=      5-min Rain = 0
KPD3 201431Z 23007KT M02/M06 A3026 RMK A01 T10201058  RH  075%=      5-min Rain = 0
KPD3 201432Z 23007KT M02/M06 A3025 RMK A01 T10191057  RH  075%=      5-min Rain = 0
KPD3 201433Z 23007KT M02/M06 A3025 RMK A01 T10181056  RH  075%=      5-min Rain = 0
KPD3 201434Z 23007KT M02/M06 A3025 RMK A01 T10171055  RH  075%=      5-min Rain = 0
KPD3 201435Z 23007KT M02/M06 A3025 RMK A01 T10171056  RH  075%=      5-min Rain = 0
KPD3 201436Z 23007KT M02/M06 A3025 RMK A01 T10151056  RH  074%=      5-min Rain = 0
KPD3 201437Z 22007KT M02/M06 A3025 RMK A01 T10151055  RH  074%=      5-min Rain = 0
KPD3 201438Z 22007KT M02/M06 A3025 RMK A01 T10151055  RH  074%=      5-min Rain = 0
KPD3 201439Z 21007KT M01/M06 A3025 RMK A01 T10141055  RH  073%=      5-min Rain = 0
KPD3 201440Z 21008KT M01/M06 A3025 RMK A01 T10141055  RH  074%=      5-min Rain = 0
KPD3 201441Z 21008KT M01/M06 A3025 RMK A01 T10141056  RH  073%=      5-min Rain = 0
KPD3 201442Z 21009KT M01/M06 A3025 RMK A01 T10131056  RH  072%=      5-min Rain = 0
KPD3 201443Z 21010KT M01/M06 A3025 RMK A01 T10131055  RH  073%=      5-min Rain = 0
KPD3 201444Z 21010KT M01/M06 A3025 RMK A01 T10121056  RH  072%=      5-min Rain = 0
KPD3 201445Z 21010KT M01/M06 A3025 RMK A01 T10111055  RH  072%=      5-min Rain = 0
KPD3 201446Z 21009KT M01/M05 A3025 RMK A01 T10101054  RH  072%=      5-min Rain = 0
KPD3 201447Z 21009KT M01/M05 A3025 RMK A01 T10101054  RH  072%=      5-min Rain = 0
KPD3 201448Z 21009KT M01/M05 A3025 RMK A01 T10101054  RH  072%=      5-min Rain = 0
KPD3 201449Z 21009KT M01/M05 A3025 RMK A01 T10091053  RH  072%=      5-min Rain = 0
KPD3 201450Z 21009KT M01/M05 A3025 RMK A01 T10091053  RH  072%=      5-min Rain = 0
KPD3 201451Z 21009KT M01/M05 A3025 RMK A01 T10091053  RH  072%=      5-min Rain = 0
KPD3 201452Z 21010KT M01/M05 A3025 RMK A01 T10091054  RH  072%=      5-min Rain = 0
KPD3 201453Z 21009KT M01/M05 A3025 RMK A01 T10091053  RH  072%=      5-min Rain = 0
KPD3 201454Z 21009KT M01/M05 A3025 RMK A01 T10091052  RH  072%=      5-min Rain = 0
KPD3 201455Z 21010KT M01/M05 A3024 RMK A01 T10081051  RH  073%=      5-min Rain = 0
KPD3 201456Z 21009KT M01/M05 A3024 RMK A01 T10081052  RH  072%=      5-min Rain = 0
KPD3 201457Z 22009KT M01/M05 A3024 RMK A01 T10081051  RH  072%=      5-min Rain = 0
KPD3 201458Z 22011KT M01/M05 A3024 RMK A01 T10071052  RH  072%=      5-min Rain = 0
KPD3 201459Z 21010KT M01/M05 A3024 RMK A01 T10061053  RH  071%=      5-min Rain = 0
KPD3 201500Z 22010KT M01/M05 A3024 RMK A01 T10061053  RH  070%=      5-min Rain = 0
KPD3 201501Z 22008KT M01/M05 A3024 RMK A01 T10061052  RH  071%=      5-min Rain = 0
KPD3 201502Z 22010KT M01/M05 A3024 RMK A01 T10051052  RH  071%=      5-min Rain = 0
KPD3 201503Z 22010KT M01/M05 A3024 RMK A01 T10051052  RH  070%=      5-min Rain = 0
KPD3 201504Z 22009KT M00/M05 A3024 RMK A01 T10041053  RH  070%=      5-min Rain = 0
KPD3 201505Z 22010KT M00/M05 A3024 RMK A01 T10031051  RH  070%=      5-min Rain = 0
KPD3 201506Z 22010KT M00/M05 A3024 RMK A01 T10021051  RH  070%=      5-min Rain = 0
KPD3 201507Z 22008KT M00/M05 A3024 RMK A01 T10021051  RH  069%=      5-min Rain = 0
KPD3 201508Z 22009KT M00/M05 A3024 RMK A01 T10011048  RH  070%=      5-min Rain = 0
KPD3 201509Z 22010KT M00/M05 A3024 RMK A01 T10011050  RH  070%=      5-min Rain = 0
KPD3 201510Z 22010KT 00/05 A3024 RMK A01 T00-00-50  RH  069%=      5-min Rain = 0
KPD3 201511Z 22010KT 00/05 A3024 RMK A01 T00000-50  RH  069%=      5-min Rain = 0
KPD3 201512Z 22010KT 00/M05 A3023 RMK A01 T00011050  RH  069%=      5-min Rain = 0
KPD3 201513Z 22010KT 00/M05 A3023 RMK A01 T00021050  RH  068%=      5-min Rain = 0
KPD3 201514Z 22010KT 00/M05 A3023 RMK A01 T00021050  RH  068%=      5-min Rain = 0
KPD3 201515Z 22010KT 00/M05 A3023 RMK A01 T00021050  RH  068%=      5-min Rain = 0
KPD3 201516Z 22009KT 00/M05 A3023 RMK A01 T00031050  RH  068%=      5-min Rain = 0
KPD3 201517Z 22011KT 00/M05 A3023 RMK A01 T00031050  RH  067%=      5-min Rain = 0
KPD3 201518Z 22011KT 00/M05 A3023 RMK A01 T00041050  RH  067%=      5-min Rain = 0
KPD3 201519Z 22010KT 01/M05 A3023 RMK A01 T00051050  RH  067%=      5-min Rain = 0
KPD3 201520Z 22009KT 01/M05 A3023 RMK A01 T00051050  RH  067%=      5-min Rain = 0
KPD3 201521Z 22009KT 01/M05 A3023 RMK A01 T00061048  RH  067%=      5-min Rain = 0
KPD3 201522Z 22010KT 01/M05 A3024 RMK A01 T00061049  RH  066%=      5-min Rain = 0
KPD3 201523Z 22010KT 01/M05 A3024 RMK A01 T00071049  RH  066%=      5-min Rain = 0
KPD3 201524Z 22008KT 01/M05 A3024 RMK A01 T00081050  RH  065%=      5-min Rain = 0
KPD3 201525Z 22010KT 01/M05 A3024 RMK A01 T00091047  RH  067%=      5-min Rain = 0
KPD3 201526Z 22009KT 01/M05 A3024 RMK A01 T00091049  RH  065%=      5-min Rain = 0
KPD3 201527Z 21009KT 01/M05 A3024 RMK A01 T00091049  RH  065%=      5-min Rain = 0
KPD3 201528Z 22009KT 01/M05 A3024 RMK A01 T00091049  RH  065%=      5-min Rain = 0
KPD3 201529Z 22009KT 01/M05 A3024 RMK A01 T00101050  RH  064%=      5-min Rain = 0
KPD3 201530Z 21009KT 01/M05 A3023 RMK A01 T00101051  RH  064%=      5-min Rain = 0
KPD3 201531Z 23008KT 01/M05 A3023 RMK A01 T00101050  RH  064%=      5-min Rain = 0
KPD3 201532Z 22007KT 01/M05 A3023 RMK A01 T00111049  RH  064%=      5-min Rain = 0
KPD3 201533Z 21009KT 01/M05 A3023 RMK A01 T00111048  RH  065%=      5-min Rain = 0
KPD3 201534Z 22007KT 01/M05 A3023 RMK A01 T00111050  RH  064%=      5-min Rain = 0
KPD3 201535Z 22008KT 01/M05 A3023 RMK A01 T00121049  RH  064%=      5-min Rain = 0
KPD3 201536Z 22008KT 01/M05 A3023 RMK A01 T00121049  RH  064%=      5-min Rain = 0
KPD3 201537Z 21006KT 01/M05 A3023 RMK A01 T00121049  RH  064%=      5-min Rain = 0
KPD3 201538Z 21008KT 01/M05 A3023 RMK A01 T00131046  RH  065%=      5-min Rain = 0
KPD3 201539Z 22006KT 01/M05 A3023 RMK A01 T00131047  RH  064%=      5-min Rain = 0
KPD3 201540Z 22007KT 01/M05 A3023 RMK A01 T00131048  RH  064%=      5-min Rain = 0
KPD3 201541Z 22007KT 01/M05 A3023 RMK A01 T00141048  RH  063%=      5-min Rain = 0
KPD3 201542Z 21008KT 02/M05 A3023 RMK A01 T00151047  RH  063%=      5-min Rain = 0
KPD3 201543Z 22011KT 02/M05 A3023 RMK A01 T00151049  RH  062%=      5-min Rain = 0
KPD3 201544Z 22012KT 02/M05 A3023 RMK A01 T00151051  RH  061%=      5-min Rain = 0
KPD3 201545Z 22010KT 02/M05 A3023 RMK A01 T00151051  RH  061%=      5-min Rain = 0
KPD3 201546Z 22010KT 02/M05 A3023 RMK A01 T00151050  RH  062%=      5-min Rain = 0
KPD3 201547Z 22011KT 02/M05 A3023 RMK A01 T00151051  RH  062%=      5-min Rain = 0
KPD3 201548Z 22010KT 02/M05 A3023 RMK A01 T00161051  RH  061%=      5-min Rain = 0
KPD3 201549Z 21010KT 02/M05 A3023 RMK A01 T00161050  RH  061%=      5-min Rain = 0
KPD3 201550Z 22011KT 02/M05 A3023 RMK A01 T00161051  RH  061%=      5-min Rain = 0
KPD3 201551Z 22011KT 02/M05 A3023 RMK A01 T00171050  RH  061%=      5-min Rain = 0
KPD3 201552Z 22010KT 02/M05 A3023 RMK A01 T00171050  RH  061%=      5-min Rain = 0
KPD3 201553Z 22010KT 02/M05 A3023 RMK A01 T00181049  RH  061%=      5-min Rain = 0
KPD3 201554Z 23010KT 02/M05 A3023 RMK A01 T00191048  RH  061%=      5-min Rain = 0
KPD3 201555Z 22010KT 02/M05 A3023 RMK A01 T00191049  RH  061%=      5-min Rain = 0
KPD3 201556Z 22008KT 02/M05 A3023 RMK A01 T00201048  RH  061%=      5-min Rain = 0
KPD3 201557Z 21010KT 02/M05 A3022 RMK A01 T00211045  RH  061%=      5-min Rain = 0
KPD3 201558Z 21011KT 02/M05 A3022 RMK A01 T00221047  RH  060%=      5-min Rain = 0
KPD3 201559Z 22012KT 02/M05 A3022 RMK A01 T00221047  RH  060%=      5-min Rain = 0
KPD3 201600Z 21011KT 02/M05 A3022 RMK A01 T00221048  RH  060%=      5-min Rain = 0
KPD3 201601Z 21011KT 02/M05 A3022 RMK A01 T00231048  RH  060%=      5-min Rain = 0
KPD3 201602Z 22011KT 02/M05 A3022 RMK A01 T00241047  RH  060%=      5-min Rain = 0
KPD3 201603Z 22010KT 03/M05 A3022 RMK A01 T00251047  RH  059%=      5-min Rain = 0
KPD3 201604Z 22009KT 03/M05 A3022 RMK A01 T00261045  RH  059%=      5-min Rain = 0
KPD3 201605Z 22010KT 03/M04 A3022 RMK A01 T00281044  RH  059%=      5-min Rain = 0
KPD3 201606Z 22010KT 03/M04 A3022 RMK A01 T00301044  RH  058%=      5-min Rain = 0
KPD3 201607Z 22011KT 03/M04 A3022 RMK A01 T00311043  RH  058%=      5-min Rain = 0
KPD3 201608Z 22010KT 03/M04 A3022 RMK A01 T00321044  RH  058%=      5-min Rain = 0
KPD3 201609Z 22010KT 03/M04 A3022 RMK A01 T00331043  RH  057%=      5-min Rain = 0
KPD3 201610Z 22010KT 04/M04 A3022 RMK A01 T00351040  RH  058%=      5-min Rain = 0
KPD3 201611Z 21011KT 04/M04 A3022 RMK A01 T00381039  RH  057%=      5-min Rain = 0
KPD3 201612Z 21013KT 04/M04 A3022 RMK A01 T00381041  RH  056%=      5-min Rain = 0
KPD3 201613Z 21014KT 04/M04 A3022 RMK A01 T00381043  RH  056%=      5-min Rain = 0
KPD3 201614Z 22013KT 04/M04 A3022 RMK A01 T00381042  RH  056%=      5-min Rain = 0
KPD3 201615Z 22010KT 04/M04 A3022 RMK A01 T00391040  RH  056%=      5-min Rain = 0
KPD3 201616Z 22011KT 04/M04 A3022 RMK A01 T00431037  RH  056%=      5-min Rain = 0
KPD3 201617Z 22012G17KT 05/M04 A3022 RMK A01 T00451039  RH  055%=      5-min Rain = 0
KPD3 201618Z 21014KT 04/M04 A3022 RMK A01 T00441041  RH  054%=      5-min Rain = 0
KPD3 201619Z 21017KT 04/M04 A3021 RMK A01 T00431042  RH  054%=      5-min Rain = 0
KPD3 201620Z 21014KT 04/M04 A3021 RMK A01 T00431042  RH  054%=      5-min Rain = 0
KPD3 201621Z 21016KT 04/M04 A3021 RMK A01 T00431042  RH  054%=      5-min Rain = 0
KPD3 201622Z 21015KT 04/M04 A3021 RMK A01 T00431042  RH  054%=      5-min Rain = 0
KPD3 201623Z 22016KT 04/M04 A3021 RMK A01 T00431042  RH  054%=      5-min Rain = 0
KPD3 201624Z 22015KT 04/M04 A3021 RMK A01 T00441042  RH  054%=      5-min Rain = 0
KPD3 201625Z 21014KT 05/M04 A3021 RMK A01 T00451041  RH  054%=      5-min Rain = 0
KPD3 201626Z 21014KT 05/M04 A3021 RMK A01 T00451041  RH  054%=      5-min Rain = 0
KPD3 201627Z 22016KT 05/M04 A3021 RMK A01 T00451042  RH  053%=      5-min Rain = 0
KPD3 201628Z 21015KT 05/M04 A3021 RMK A01 T00451041  RH  053%=      5-min Rain = 0
KPD3 201629Z 21014KT 05/M04 A3021 RMK A01 T00461041  RH  053%=      5-min Rain = 0
KPD3 201630Z 21014KT 05/M04 A3021 RMK A01 T00461042  RH  053%=      5-min Rain = 0
KPD3 201631Z 21015KT 05/M04 A3021 RMK A01 T00461041  RH  053%=      5-min Rain = 0
KPD3 201632Z 21016KT 05/M04 A3021 RMK A01 T00471042  RH  053%=      5-min Rain = 0
KPD3 201633Z 21015KT 05/M04 A3021 RMK A01 T00461041  RH  053%=      5-min Rain = 0
KPD3 201634Z 22014KT 05/M04 A3021 RMK A01 T00481040  RH  053%=      5-min Rain = 0
KPD3 201635Z 22017KT 05/M04 A3021 RMK A01 T00491040  RH  052%=      5-min Rain = 0
KPD3 201636Z 22013KT 05/M04 A3021 RMK A01 T00481041  RH  052%=      5-min Rain = 0
KPD3 201637Z 20015KT 05/M04 A3021 RMK A01 T00491039  RH  053%=      5-min Rain = 0
KPD3 201638Z 21014KT 05/M04 A3021 RMK A01 T00501040  RH  052%=      5-min Rain = 0
KPD3 201639Z 21014KT 05/M04 A3021 RMK A01 T00491040  RH  052%=      5-min Rain = 0
KPD3 201640Z 21013KT 05/M04 A3021 RMK A01 T00501040  RH  052%=      5-min Rain = 0
KPD3 201641Z 21012KT 05/M04 A3021 RMK A01 T00511039  RH  052%=      5-min Rain = 0
KPD3 201642Z 21015KT 05/M04 A3021 RMK A01 T00521038  RH  052%=      5-min Rain = 0
KPD3 201643Z 21013KT 05/M04 A3021 RMK A01 T00521039  RH  052%=      5-min Rain = 0
KPD3 201644Z 21013KT 05/M04 A3021 RMK A01 T00521039  RH  052%=      5-min Rain = 0
KPD3 201645Z 21015KT 05/M04 A3021 RMK A01 T00531039  RH  052%=      5-min Rain = 0
KPD3 201646Z 21012KT 05/M04 A3021 RMK A01 T00531039  RH  052%=      5-min Rain = 0
KPD3 201647Z 21013KT 06/M04 A3021 RMK A01 T00551038  RH  051%=      5-min Rain = 0
KPD3 201648Z 21013KT 06/M04 A3021 RMK A01 T00551038  RH  051%=      5-min Rain = 0
KPD3 201649Z 21013KT 06/M04 A3021 RMK A01 T00561038  RH  051%=      5-min Rain = 0
KPD3 201650Z 21013KT 06/M04 A3021 RMK A01 T00571036  RH  051%=      5-min Rain = 0
KPD3 201651Z 21012KT 06/M04 A3021 RMK A01 T00571038  RH  050%=      5-min Rain = 0
KPD3 201652Z 21012KT 06/M04 A3021 RMK A01 T00571037  RH  051%=      5-min Rain = 0
KPD3 201653Z 21013KT 06/M04 A3021 RMK A01 T00581037  RH  051%=      5-min Rain = 0
KPD3 201654Z 19013KT 06/M04 A3021 RMK A01 T00591036  RH  050%=      5-min Rain = 0
KPD3 201655Z 20012KT 06/M04 A3021 RMK A01 T00591037  RH  050%=      5-min Rain = 0
KPD3 201656Z 21012KT 06/M04 A3021 RMK A01 T00591036  RH  050%=      5-min Rain = 0
KPD3 201657Z 20011KT 06/M04 A3021 RMK A01 T00601036  RH  050%=      5-min Rain = 0
KPD3 201658Z 20012KT 06/M04 A3021 RMK A01 T00601037  RH  050%=      5-min Rain = 0
KPD3 201659Z 20013KT 06/M04 A3021 RMK A01 T00591039  RH  050%=      5-min Rain = 0
KPD3 201700Z 20013KT 06/M04 A3021 RMK A01 T00581039  RH  050%=      5-min Rain = 0
KPD3 201701Z 20013KT 06/M04 A3021 RMK A01 T00581038  RH  050%=      5-min Rain = 0
KPD3 201702Z 20013KT 06/M04 A302 RMK A01 T00571039  RH  050%=      5-min Rain = 0
KPD3 201703Z 19011KT 06/M04 A302 RMK A01 T00571038  RH  050%=      5-min Rain = 0
KPD3 201704Z 20013KT 06/M04 A302 RMK A01 T00591036  RH  050%=      5-min Rain = 0
KPD3 201705Z 20013KT 06/M04 A302 RMK A01 T00591038  RH  050%=      5-min Rain = 0
KPD3 201706Z 19011KT 06/M04 A302 RMK A01 T00591039  RH  050%=      5-min Rain = 0
KPD3 201707Z 19011KT 06/M04 A302 RMK A01 T00581038  RH  050%=      5-min Rain = 0
KPD3 201708Z 19011KT 06/M04 A302 RMK A01 T00601037  RH  050%=      5-min Rain = 0
KPD3 201709Z 19011KT 06/M04 A302 RMK A01 T00601037  RH  050%=      5-min Rain = 0
KPD3 201710Z 19011KT 06/M04 A302 RMK A01 T00621036  RH  050%=      5-min Rain = 0
KPD3 201711Z 19010KT 06/M04 A302 RMK A01 T00631037  RH  049%=      5-min Rain = 0
KPD3 201712Z 19013KT 06/M04 A302 RMK A01 T00621038  RH  049%=      5-min Rain = 0
KPD3 201713Z 19011KT 06/M04 A302 RMK A01 T00611039  RH  049%=      5-min Rain = 0
KPD3 201714Z 20013KT 06/M04 A302 RMK A01 T00621037  RH  049%=      5-min Rain = 0
KPD3 201715Z 20011KT 06/M04 A302 RMK A01 T00631037  RH  049%=      5-min Rain = 0
KPD3 201716Z 19012KT 06/M04 A302 RMK A01 T00641037  RH  049%=      5-min Rain = 0
KPD3 201717Z 20012KT 06/M04 A302 RMK A01 T00631039  RH  048%=      5-min Rain = 0
KPD3 201718Z 20012KT 06/M04 A302 RMK A01 T00631038  RH  048%=      5-min Rain = 0
KPD3 201719Z 20010KT 06/M04 A302 RMK A01 T00621038  RH  049%=      5-min Rain = 0
KPD3 201720Z 20010KT 06/M04 A302 RMK A01 T00631037  RH  049%=      5-min Rain = 0
KPD3 201721Z 19008KT 07/M03 A302 RMK A01 T00661034  RH  049%=      5-min Rain = 0
KPD3 201722Z 19011KT 07/M03 A3019 RMK A01 T00691033  RH  048%=      5-min Rain = 0
KPD3 201723Z 20011KT 07/M04 A3019 RMK A01 T00701035  RH  047%=      5-min Rain = 0
KPD3 201724Z 19012KT 07/M04 A3019 RMK A01 T00681037  RH  047%=      5-min Rain = 0
KPD3 201725Z 20012KT 07/M04 A3019 RMK A01 T00681037  RH  047%=      5-min Rain = 0
KPD3 201726Z 19011KT 07/M04 A3019 RMK A01 T00671037  RH  047%=      5-min Rain = 0
KPD3 201727Z 19012KT 07/M04 A3019 RMK A01 T00671037  RH  048%=      5-min Rain = 0
KPD3 201728Z 20013KT 07/M04 A3019 RMK A01 T00681036  RH  047%=      5-min Rain = 0
KPD3 201729Z 20012KT 07/M04 A3019 RMK A01 T00681038  RH  047%=      5-min Rain = 0
KPD3 201730Z 19012KT 07/M04 A3019 RMK A01 T00671038  RH  047%=      5-min Rain = 0
KPD3 201731Z 20011KT 07/M04 A3019 RMK A01 T00681036  RH  048%=      5-min Rain = 0
KPD3 201732Z 19010KT 07/M04 A3019 RMK A01 T00691036  RH  047%=      5-min Rain = 0
KPD3 201733Z 19011KT 07/M04 A3019 RMK A01 T00711035  RH  047%=      5-min Rain = 0
KPD3 201734Z 19010KT 07/M04 A302 RMK A01 T00711035  RH  047%=      5-min Rain = 0
KPD3 201735Z 20011KT 07/M04 A302 RMK A01 T00721035  RH  046%=      5-min Rain = 0
KPD3 201736Z 19011KT 07/M03 A302 RMK A01 T00731034  RH  047%=      5-min Rain = 0
KPD3 201737Z 19012KT 07/M04 A302 RMK A01 T00741035  RH  046%=      5-min Rain = 0
KPD3 201738Z 19011KT 08/M03 A3019 RMK A01 T00751034  RH  046%=      5-min Rain = 0
KPD3 201739Z 20010KT 08/M04 A3019 RMK A01 T00751035  RH  046%=      5-min Rain = 0
KPD3 201740Z 18011KT 08/M03 A3019 RMK A01 T00771032  RH  046%=      5-min Rain = 0
KPD3 201741Z 19012KT 08/M03 A3019 RMK A01 T00791033  RH  045%=      5-min Rain = 0
KPD3 201742Z 18012KT 08/M03 A3019 RMK A01 T00791034  RH  045%=      5-min Rain = 0
KPD3 201743Z 18012KT 08/M03 A3019 RMK A01 T00801034  RH  045%=      5-min Rain = 0
KPD3 201744Z 18012KT 08/M03 A3018 RMK A01 T00801034  RH  044%=      5-min Rain = 0
KPD3 201745Z 18012KT 08/M03 A3018 RMK A01 T00801034  RH  045%=      5-min Rain = 0
KPD3 201746Z 18012KT 08/M04 A3018 RMK A01 T00801035  RH  044%=      5-min Rain = 0
KPD3 201747Z 19012KT 08/M04 A3018 RMK A01 T00791035  RH  044%=      5-min Rain = 0
KPD3 201748Z 19011KT 08/M04 A3019 RMK A01 T00791035  RH  044%=      5-min Rain = 0
KPD3 201749Z 19012KT 08/M03 A3018 RMK A01 T00791034  RH  045%=      5-min Rain = 0
KPD3 201750Z 19011KT 08/M03 A3018 RMK A01 T00811033  RH  044%=      5-min Rain = 0
KPD3 201751Z 19010KT 08/M03 A3018 RMK A01 T00831032  RH  044%=      5-min Rain = 0
KPD3 201752Z 19009KT 08/M03 A3018 RMK A01 T00841032  RH  044%=      5-min Rain = 0
KPD3 201753Z 20011KT 09/M03 A3018 RMK A01 T00851031  RH  044%=      5-min Rain = 0
KPD3 201754Z 19013KT 09/M03 A3018 RMK A01 T00871032  RH  043%=      5-min Rain = 0
KPD3 201755Z 19012KT 09/M03 A3018 RMK A01 T00861032  RH  043%=      5-min Rain = 0
KPD3 201756Z 20012KT 09/M03 A3018 RMK A01 T00871032  RH  043%=      5-min Rain = 0
KPD3 201757Z 20014KT 09/M03 A3018 RMK A01 T00891030  RH  043%=      5-min Rain = 0
KPD3 201758Z 18012KT 09/M03 A3018 RMK A01 T00901031  RH  042%=      5-min Rain = 0
KPD3 201759Z 19011KT 09/M03 A3018 RMK A01 T00921028  RH  043%=      5-min Rain = 0
KPD3 201800Z 19011KT 10/M03 A3018 RMK A01 T00951028  RH  042%=      5-min Rain = 0
KPD3 201801Z 19013KT 10/M03 A3018 RMK A01 T00961029  RH  041%=      5-min Rain = 0
KPD3 201802Z 19011KT 10/M03 A3018 RMK A01 T00961029  RH  041%=      5-min Rain = 0
KPD3 201803Z 20012KT 10/M03 A3018 RMK A01 T00981029  RH  041%=      5-min Rain = 0
KPD3 201804Z 19011KT 10/M03 A3018 RMK A01 T00971030  RH  041%=      5-min Rain = 0
KPD3 201805Z 17010KT 10/M03 A3018 RMK A01 T00991027  RH  041%=      5-min Rain = 0
KPD3 201806Z 16007KT 10/M03 A3018 RMK A01 T01011027  RH  040%=      5-min Rain = 0
KPD3 201807Z 13007KT 10/M03 A3018 RMK A01 T00981029  RH  041%=      5-min Rain = 0
KPD3 201808Z 13007KT 10/M03 A3018 RMK A01 T00971030  RH  041%=      5-min Rain = 0
KPD3 201809Z 14007KT 09/M03 A3018 RMK A01 T00941029  RH  042%=      5-min Rain = 0
KPD3 201810Z 14010KT 09/M03 A3017 RMK A01 T00931031  RH  042%=      5-min Rain = 0
KPD3 201811Z 13010KT 09/M03 A3017 RMK A01 T00901033  RH  042%=      5-min Rain = 0
KPD3 201812Z 13009KT 09/M03 A3017 RMK A01 T00871033  RH  043%=      5-min Rain = 0
KPD3 201813Z 14008KT 09/M03 A3017 RMK A01 T00871032  RH  043%=      5-min Rain = 0
KPD3 201814Z 14008KT 09/M03 A3017 RMK A01 T00901030  RH  043%=      5-min Rain = 0
KPD3 201815Z 14009KT 09/M03 A3017 RMK A01 T00911032  RH  042%=      5-min Rain = 0
KPD3 201816Z 13009KT 09/M03 A3017 RMK A01 T00891033  RH  042%=      5-min Rain = 0
KPD3 201817Z 15009KT 09/M03 A3017 RMK A01 T00901031  RH  043%=      5-min Rain = 0
KPD3 201818Z 14009KT 09/M03 A3017 RMK A01 T00901032  RH  042%=      5-min Rain = 0
KPD3 201819Z 13010KT 09/M03 A3016 RMK A01 T00891033  RH  042%=      5-min Rain = 0
KPD3 201820Z 13010KT 09/M03 A3016 RMK A01 T00881033  RH  042%=      5-min Rain = 0
KPD3 201821Z 13011KT 09/M03 A3017 RMK A01 T00881034  RH  042%=      5-min Rain = 0
KPD3 201822Z 13009KT 09/M03 A3017 RMK A01 T00871034  RH  042%=      5-min Rain = 0
KPD3 201823Z 13008KT 09/M03 A3016 RMK A01 T00861034  RH  043%=      5-min Rain = 0
KPD3 201824Z 12009KT 09/M03 A3016 RMK A01 T00871034  RH  042%=      5-min Rain = 0
KPD3 201825Z 14009KT 09/M04 A3016 RMK A01 T00851035  RH  042%=      5-min Rain = 0
KPD3 201826Z 14008KT 09/M04 A3016 RMK A01 T00861035  RH  042%=      5-min Rain = 0
KPD3 201827Z 14006KT 09/M03 A3016 RMK A01 T00871034  RH  042%=      5-min Rain = 0
KPD3 201828Z 15006KT 09/M03 A3016 RMK A01 T00901033  RH  042%=      5-min Rain = 0
KPD3 201829Z 14006KT 09/M03 A3016 RMK A01 T00931030  RH  042%=      5-min Rain = 0
KPD3 201830Z 15007KT 10/M03 A3016 RMK A01 T00971030  RH  041%=      5-min Rain = 0
KPD3 201831Z 17009KT 10/M03 A3016 RMK A01 T01011028  RH  040%=      5-min Rain = 0
KPD3 201832Z 17011KT 10/M03 A3016 RMK A01 T01041030  RH  039%=      5-min Rain = 0
KPD3 201833Z 19008KT 11/M03 A3016 RMK A01 T01061030  RH  039%=      5-min Rain = 0
KPD3 201834Z 17009KT 11/M03 A3016 RMK A01 T01071028  RH  039%=      5-min Rain = 0
KPD3 201835Z 16011KT 11/M03 A3016 RMK A01 T01101029  RH  038%=      5-min Rain = 0
KPD3 201836Z 18008KT 11/M03 A3016 RMK A01 T01101029  RH  038%=      5-min Rain = 0
KPD3 201837Z 15009KT 11/M03 A3016 RMK A01 T01121029  RH  037%=      5-min Rain = 0
KPD3 201838Z 13009KT 11/M03 A3016 RMK A01 T01081033  RH  037%=      5-min Rain = 0
KPD3 201839Z 13009KT 11/M03 A3015 RMK A01 T01051034  RH  038%=      5-min Rain = 0
KPD3 201840Z 14011KT 10/M03 A3015 RMK A01 T01031032  RH  039%=      5-min Rain = 0
KPD3 201841Z 14011KT 10/M03 A3015 RMK A01 T01021034  RH  038%=      5-min Rain = 0
KPD3 201842Z 15008KT 10/M04 A3015 RMK A01 T00981035  RH  039%=      5-min Rain = 0
KPD3 201843Z 14008KT 10/M03 A3015 RMK A01 T00981033  RH  040%=      5-min Rain = 0
KPD3 201844Z 13008KT 10/M03 A3015 RMK A01 T01011031  RH  039%=      5-min Rain = 0
KPD3 201845Z 12009KT 10/M03 A3015 RMK A01 T01021032  RH  039%=      5-min Rain = 0
KPD3 201846Z 13009KT 10/M03 A3015 RMK A01 T01031032  RH  039%=      5-min Rain = 0
KPD3 201847Z 14007KT 10/M03 A3015 RMK A01 T01021031  RH  039%=      5-min Rain = 0
KPD3 201848Z 13006KT 11/M03 A3015 RMK A01 T01061027  RH  039%=      5-min Rain = 0
KPD3 201849Z 15007KT 11/M03 A3015 RMK A01 T01091028  RH  038%=      5-min Rain = 0
KPD3 201850Z 15004KT 11/M03 A3015 RMK A01 T01081031  RH  038%=      5-min Rain = 0
KPD3 201851Z 15003KT 11/M03 A3015 RMK A01 T01091028  RH  038%=      5-min Rain = 0
KPD3 201852Z 14005KT 11/M03 A3015 RMK A01 T01121027  RH  038%=      5-min Rain = 0
KPD3 201853Z 15005KT 11/M03 A3015 RMK A01 T01121030  RH  037%=      5-min Rain = 0
KPD3 201854Z 15007KT 11/M03 A3015 RMK A01 T01121029  RH  037%=      5-min Rain = 0
KPD3 201855Z 13007KT 11/M03 A3015 RMK A01 T01121029  RH  037%=      5-min Rain = 0
KPD3 201856Z 19008KT 11/M03 A3015 RMK A01 T01121029  RH  037%=      5-min Rain = 0
KPD3 201857Z 19007KT 12/M03 A3015 RMK A01 T01181028  RH  036%=      5-min Rain = 0
KPD3 201858Z 16006KT 12/M03 A3015 RMK A01 T01221030  RH  035%=      5-min Rain = 0
KPD3 201859Z 13008KT 12/M03 A3014 RMK A01 T01221028  RH  035%=      5-min Rain = 0
KPD3 201900Z 15007KT 12/M03 A3014 RMK A01 T01191029  RH  035%=      5-min Rain = 0
KPD3 201901Z 15006KT 11/M03 A3014 RMK A01 T01141031  RH  036%=      5-min Rain = 0
KPD3 201902Z 17006KT 11/M03 A3014 RMK A01 T01131030  RH  037%=      5-min Rain = 0
KPD3 201903Z 13007KT 11/M03 A3014 RMK A01 T01131028  RH  037%=      5-min Rain = 0
KPD3 201904Z 15009KT 12/M03 A3014 RMK A01 T01151027  RH  037%=      5-min Rain = 0
KPD3 201905Z 14007KT 12/M03 A3014 RMK A01 T01161030  RH  036%=      5-min Rain = 0
KPD3 201906Z 14006KT 12/M03 A3014 RMK A01 T01161029  RH  036%=      5-min Rain = 0
KPD3 201907Z 12006KT 12/M03 A3014 RMK A01 T01161029  RH  036%=      5-min Rain = 0
KPD3 201908Z 12007KT 12/M03 A3014 RMK A01 T01171026  RH  037%=      5-min Rain = 0
KPD3 201909Z 11007KT 12/M03 A3014 RMK A01 T01181026  RH  036%=      5-min Rain = 0
KPD3 201910Z 13008KT 12/M02 A3014 RMK A01 T01211024  RH  036%=      5-min Rain = 0
KPD3 201911Z 12008KT 12/M03 A3014 RMK A01 T01221026  RH  036%=      5-min Rain = 0
KPD3 201912Z 11009KT 12/M03 A3014 RMK A01 T01201027  RH  036%=      5-min Rain = 0
KPD3 201913Z 12007KT 12/M03 A3013 RMK A01 T01181028  RH  036%=      5-min Rain = 0
KPD3 201914Z 10007KT 12/M03 A3013 RMK A01 T01181026  RH  036%=      5-min Rain = 0
KPD3 201915Z 10006KT 12/M03 A3013 RMK A01 T01181026  RH  036%=      5-min Rain = 0
KPD3 201916Z 12007KT 12/M02 A3013 RMK A01 T01221024  RH  036%=      5-min Rain = 0
KPD3 201917Z 14007KT 12/M02 A3013 RMK A01 T01241024  RH  036%=      5-min Rain = 0
KPD3 201918Z 15008KT 13/M03 A3013 RMK A01 T01271025  RH  035%=      5-min Rain = 0
KPD3 201919Z 12007KT 13/M03 A3013 RMK A01 T01271026  RH  034%=      5-min Rain = 0
KPD3 201920Z 11011KT 13/M03 A3013 RMK A01 T01261026  RH  035%=      5-min Rain = 0
KPD3 201921Z 11008KT 12/M03 A3013 RMK A01 T01241026  RH  035%=      5-min Rain = 0
KPD3 201922Z 11009KT 12/M03 A3012 RMK A01 T01241025  RH  035%=      5-min Rain = 0
KPD3 201923Z 10008KT 13/M02 A3012 RMK A01 T01251024  RH  035%=      5-min Rain = 0
KPD3 201924Z 13010KT 13/M03 A3012 RMK A01 T01271025  RH  035%=      5-min Rain = 0
KPD3 201925Z 10010KT 13/M03 A3012 RMK A01 T01271026  RH  034%=      5-min Rain = 0
KPD3 201926Z 12009KT 13/M03 A3012 RMK A01 T01281025  RH  034%=      5-min Rain = 0
KPD3 201927Z 13009KT 13/M03 A3012 RMK A01 T01281025  RH  034%=      5-min Rain = 0
KPD3 201928Z 13009KT 13/M02 A3012 RMK A01 T01291024  RH  034%=      5-min Rain = 0
KPD3 201929Z 12008KT 13/M03 A3012 RMK A01 T01281025  RH  034%=      5-min Rain = 0
KPD3 201930Z 11006KT 13/M03 A3012 RMK A01 T01261027  RH  034%=      5-min Rain = 0
KPD3 201931Z 11007KT 13/M03 A3012 RMK A01 T01261025  RH  035%=      5-min Rain = 0
KPD3 201932Z 12008KT 13/M02 A3012 RMK A01 T01281024  RH  035%=      5-min Rain = 0
KPD3 201933Z 12008KT 13/M03 A3012 RMK A01 T01291025  RH  034%=      5-min Rain = 0
KPD3 201934Z 12008KT 13/M03 A3012 RMK A01 T01291025  RH  034%=      5-min Rain = 0
KPD3 201935Z 12009KT 13/M02 A3012 RMK A01 T01311024  RH  034%=      5-min Rain = 0
KPD3 201936Z 12008KT 13/M03 A3012 RMK A01 T01311025  RH  034%=      5-min Rain = 0
KPD3 201937Z 11007KT 13/M03 A3011 RMK A01 T01301027  RH  033%=      5-min Rain = 0
KPD3 201938Z 10008KT 13/M03 A3011 RMK A01 T01301025  RH  034%=      5-min Rain = 0
KPD3 201939Z 10007KT 13/M03 A3011 RMK A01 T01301026  RH  034%=      5-min Rain = 0
KPD3 201940Z 11008KT 13/M03 A3011 RMK A01 T01311025  RH  034%=      5-min Rain = 0
KPD3 201941Z 12008KT 13/M02 A3011 RMK A01 T01331023  RH  034%=      5-min Rain = 0
KPD3 201942Z 11007KT 13/M02 A3011 RMK A01 T01341024  RH  033%=      5-min Rain = 0
KPD3 201943Z 10008KT 13/M03 A3011 RMK A01 T01331025  RH  033%=      5-min Rain = 0
KPD3 201944Z 11008KT 13/M03 A3011 RMK A01 T01301027  RH  034%=      5-min Rain = 0
KPD3 201945Z 11007KT 13/M03 A3011 RMK A01 T01281026  RH  034%=      5-min Rain = 0
KPD3 201946Z 12009KT 13/M03 A3011 RMK A01 T01271026  RH  034%=      5-min Rain = 0
KPD3 201947Z 13008KT 13/M03 A3011 RMK A01 T01281026  RH  034%=      5-min Rain = 0
KPD3 201948Z 13007KT 13/M03 A3011 RMK A01 T01291025  RH  034%=      5-min Rain = 0
KPD3 201949Z 14009KT 13/M02 A3011 RMK A01 T01321024  RH  034%=      5-min Rain = 0
KPD3 201950Z 14010KT 13/M02 A3011 RMK A01 T01341024  RH  033%=      5-min Rain = 0
KPD3 201951Z 14010KT 14/M02 A301 RMK A01 T01361024  RH  033%=      5-min Rain = 0
KPD3 201952Z 13010KT 14/M02 A3011 RMK A01 T01371023  RH  033%=      5-min Rain = 0
KPD3 201953Z 13006KT 14/M02 A301 RMK A01 T01391023  RH  033%=      5-min Rain = 0
KPD3 201954Z 14008KT 14/M02 A301 RMK A01 T01401022  RH  032%=      5-min Rain = 0
KPD3 201955Z 13008KT 14/M03 A301 RMK A01 T01391026  RH  032%=      5-min Rain = 0
KPD3 201956Z 12007KT 14/M03 A301 RMK A01 T01371026  RH  032%=      5-min Rain = 0
KPD3 201957Z 15008KT 14/M03 A301 RMK A01 T01361026  RH  032%=      5-min Rain = 0
KPD3 201958Z 14007KT 14/M03 A301 RMK A01 T01361025  RH  033%=      5-min Rain = 0
KPD3 201959Z 15008KT 14/M02 A301 RMK A01 T01381024  RH  032%=      5-min Rain = 0
KPD3 202000Z 14006KT 14/M03 A301 RMK A01 T01391026  RH  032%=      5-min Rain = 0
KPD3 202001Z 13005KT 14/M03 A301 RMK A01 T01381026  RH  032%=      5-min Rain = 0
KPD3 202002Z 14006KT 14/M03 A301 RMK A01 T01371026  RH  032%=      5-min Rain = 0
KPD3 202003Z 13006KT 14/M02 A301 RMK A01 T01391024  RH  032%=      5-min Rain = 0
KPD3 202004Z 12006KT 14/M03 A301 RMK A01 T01401026  RH  032%=      5-min Rain = 0
KPD3 202005Z 16005KT 14/M03 A301 RMK A01 T01381026  RH  032%=      5-min Rain = 0
KPD3 202006Z 19005KT 14/M02 A301 RMK A01 T01391024  RH  032%=      5-min Rain = 0
KPD3 202007Z 20005KT 14/M02 A301 RMK A01 T01401024  RH  032%=      5-min Rain = 0
KPD3 202008Z 17006KT 14/M02 A301 RMK A01 T01421023  RH  032%=      5-min Rain = 0
KPD3 202009Z 18009KT 15/M03 A301 RMK A01 T01451028  RH  030%=      5-min Rain = 0
KPD3 202010Z 20007KT 15/M03 A301 RMK A01 T01461033  RH  029%=      5-min Rain = 0
KPD3 202011Z 19006KT 15/M03 A3009 RMK A01 T01461034  RH  029%=      5-min Rain = 0
KPD3 202012Z 19006KT 15/M03 A3009 RMK A01 T01511025  RH  030%=      5-min Rain = 0
KPD3 202013Z 18007KT 15/M03 A3009 RMK A01 T01541026  RH  029%=      5-min Rain = 0
KPD3 202014Z 19007KT 15/M03 A3009 RMK A01 T01531025  RH  029%=      5-min Rain = 0
KPD3 202015Z 19008KT 15/M03 A3009 RMK A01 T01541030  RH  028%=      5-min Rain = 0
KPD3 202016Z 18007KT 15/M03 A3009 RMK A01 T01521034  RH  028%=      5-min Rain = 0
KPD3 202017Z 21007KT 15/M03 A3009 RMK A01 T01501033  RH  028%=      5-min Rain = 0
KPD3 202018Z 22008KT 15/M03 A3009 RMK A01 T01491034  RH  028%=      5-min Rain = 0
KPD3 202019Z 20008KT 15/M04 A3009 RMK A01 T01471035  RH  028%=      5-min Rain = 0
KPD3 202020Z 19009KT 15/M03 A3009 RMK A01 T01481032  RH  029%=      5-min Rain = 0
KPD3 202021Z 19012KT 15/M03 A3009 RMK A01 T01511032  RH  028%=      5-min Rain = 0
KPD3 202022Z 19011KT 15/M03 A3009 RMK A01 T01511034  RH  028%=      5-min Rain = 0
KPD3 202023Z 20009KT 15/M03 A3009 RMK A01 T01501034  RH  028%=      5-min Rain = 0
KPD3 202024Z 19009KT 15/M03 A3009 RMK A01 T01501034  RH  028%=      5-min Rain = 0
KPD3 202025Z 18009KT 15/M03 A3009 RMK A01 T01491034  RH  028%=      5-min Rain = 0
KPD3 202026Z 17007KT 15/M04 A3009 RMK A01 T01481035  RH  028%=      5-min Rain = 0
KPD3 202027Z 19006KT 15/M04 A3009 RMK A01 T01471035  RH  028%=      5-min Rain = 0
KPD3 202028Z 18008KT 15/M03 A3009 RMK A01 T01481034  RH  028%=      5-min Rain = 0
KPD3 202029Z 17009KT 15/M03 A3009 RMK A01 T01481034  RH  028%=      5-min Rain = 0
KPD3 202030Z 17009KT 15/M03 A3009 RMK A01 T01501033  RH  028%=      5-min Rain = 0
KPD3 202031Z 18010KT 15/M03 A3009 RMK A01 T01521034  RH  028%=      5-min Rain = 0
KPD3 202032Z 18008KT 15/M04 A3009 RMK A01 T01501035  RH  028%=      5-min Rain = 0
KPD3 202033Z 17007KT 15/M03 A3008 RMK A01 T01501033  RH  028%=      5-min Rain = 0
KPD3 202034Z 18010KT 15/M03 A3008 RMK A01 T01511032  RH  028%=      5-min Rain = 0
KPD3 202035Z 18006KT 15/M03 A3008 RMK A01 T01521032  RH  028%=      5-min Rain = 0
KPD3 202036Z 18008KT 15/M03 A3008 RMK A01 T01541031  RH  028%=      5-min Rain = 0
KPD3 202037Z 19008KT 16/M03 A3008 RMK A01 T01551032  RH  027%=      5-min Rain = 0
KPD3 202038Z 20007KT 15/M03 A3008 RMK A01 T01531033  RH  028%=      5-min Rain = 0
KPD3 202039Z 19008KT 15/M03 A3008 RMK A01 T01531032  RH  028%=      5-min Rain = 0
KPD3 202040Z 17006KT 15/M03 A3008 RMK A01 T01531033  RH  028%=      5-min Rain = 0
KPD3 202041Z 17005KT 15/M03 A3008 RMK A01 T01521034  RH  028%=      5-min Rain = 0
KPD3 202042Z 18006KT 15/M03 A3008 RMK A01 T01531033  RH  028%=      5-min Rain = 0
KPD3 202043Z 17006KT 15/M03 A3008 RMK A01 T01541031  RH  028%=      5-min Rain = 0
KPD3 202044Z 18008KT 16/M03 A3008 RMK A01 T01561031  RH  027%=      5-min Rain = 0
KPD3 202045Z 17006KT 16/M03 A3007 RMK A01 T01571031  RH  027%=      5-min Rain = 0
KPD3 202046Z 17005KT 16/M03 A3007 RMK A01 T01581030  RH  027%=      5-min Rain = 0
KPD3 202047Z 20008KT 16/M03 A3007 RMK A01 T01591030  RH  027%=      5-min Rain = 0
KPD3 202048Z 19010KT 16/M03 A3007 RMK A01 T01601030  RH  027%=      5-min Rain = 0
KPD3 202049Z 19006KT 16/M03 A3007 RMK A01 T01611031  RH  027%=      5-min Rain = 0
KPD3 202050Z 19007KT 16/M03 A3007 RMK A01 T01611030  RH  027%=      5-min Rain = 0
KPD3 202051Z 18006KT 16/M03 A3007 RMK A01 T01621030  RH  027%=      5-min Rain = 0
KPD3 202052Z 19008KT 16/M03 A3007 RMK A01 T01621030  RH  027%=      5-min Rain = 0
KPD3 202053Z 20008KT 16/M03 A3007 RMK A01 T01631029  RH  027%=      5-min Rain = 0
KPD3 202054Z 20007KT 16/M03 A3007 RMK A01 T01641032  RH  026%=      5-min Rain = 0
KPD3 202055Z 24005KT 16/M03 A3007 RMK A01 T01631031  RH  026%=      5-min Rain = 0
KPD3 202056Z 20005KT 16/M03 A3007 RMK A01 T01621030  RH  026%=      5-min Rain = 0
KPD3 202057Z 15006KT 17/M03 A3007 RMK A01 T01651028  RH  027%=      5-min Rain = 0
KPD3 202058Z 14006KT 17/M03 A3007 RMK A01 T01681029  RH  026%=      5-min Rain = 0
KPD3 202059Z 15008KT 17/M03 A3007 RMK A01 T01671030  RH  026%=      5-min Rain = 0
KPD3 202100Z 17009KT 17/M03 A3007 RMK A01 T01671029  RH  026%=      5-min Rain = 0
KPD3 202101Z 16008KT 17/M03 A3007 RMK A01 T01671029  RH  026%=      5-min Rain = 0
KPD3 202102Z 19004KT 17/M03 A3007 RMK A01 T01691026  RH  026%=      5-min Rain = 0
KPD3 202103Z 21005KT 17/M03 A3007 RMK A01 T01711027  RH  026%=      5-min Rain = 0
KPD3 202104Z 18005KT 17/M03 A3006 RMK A01 T01711029  RH  025%=      5-min Rain = 0
KPD3 202105Z 15005KT 17/M03 A3006 RMK A01 T01701028  RH  026%=      5-min Rain = 0
KPD3 202106Z 18006KT 17/M03 A3006 RMK A01 T01701028  RH  026%=      5-min Rain = 0
KPD3 202107Z 19009KT 17/M03 A3007 RMK A01 T01701029  RH  026%=      5-min Rain = 0
KPD3 202108Z 18007KT 17/M03 A3007 RMK A01 T01671031  RH  026%=      5-min Rain = 0
KPD3 202109Z 16006KT 17/M03 A3006 RMK A01 T01651032  RH  026%=      5-min Rain = 0
KPD3 202110Z 18008KT 17/M03 A3006 RMK A01 T01651030  RH  026%=      5-min Rain = 0
KPD3 202111Z 20007G12KT 17/M03 A3006 RMK A01 T01661029  RH  026%=      5-min Rain = 0
KPD3 202112Z 21007KT 17/M03 A3006 RMK A01 T01691028  RH  026%=      5-min Rain = 0
KPD3 202113Z 22005KT 17/M03 A3006 RMK A01 T01681030  RH  026%=      5-min Rain = 0
KPD3 202114Z 22007KT 17/M03 A3006 RMK A01 T01681030  RH  026%=      5-min Rain = 0
KPD3 202115Z 20008KT 17/M03 A3006 RMK A01 T01661031  RH  026%=      5-min Rain = 0
KPD3 202116Z 18008KT 17/M03 A3006 RMK A01 T01671029  RH  026%=      5-min Rain = 0
KPD3 202117Z 19009KT 17/M03 A3006 RMK A01 T01671029  RH  026%=      5-min Rain = 0
KPD3 202118Z 21007KT 17/M03 A3006 RMK A01 T01671029  RH  026%=      5-min Rain = 0
KPD3 202119Z 19007KT 17/M03 A3006 RMK A01 T01661030  RH  026%=      5-min Rain = 0
KPD3 202120Z 18008KT 16/M03 A3006 RMK A01 T01641030  RH  026%=      5-min Rain = 0
KPD3 202121Z 18006KT 16/M03 A3006 RMK A01 T01631030  RH  026%=      5-min Rain = 0
KPD3 202122Z 20005KT 16/M03 A3006 RMK A01 T01621030  RH  027%=      5-min Rain = 0
KPD3 202123Z 20006KT 16/M03 A3006 RMK A01 T01621030  RH  027%=      5-min Rain = 0
KPD3 202124Z 19007KT 16/M03 A3006 RMK A01 T01621030  RH  027%=      5-min Rain = 0
KPD3 202125Z 18008KT 16/M03 A3006 RMK A01 T01641028  RH  027%=      5-min Rain = 0
KPD3 202126Z 18006KT 16/M03 A3006 RMK A01 T01641029  RH  026%=      5-min Rain = 0
KPD3 202127Z 18005KT 16/M03 A3006 RMK A01 T01631030  RH  026%=      5-min Rain = 0
KPD3 202128Z 20004KT 16/M03 A3006 RMK A01 T01621029  RH  027%=      5-min Rain = 0
KPD3 202129Z 19004KT 16/M03 A3006 RMK A01 T01641028  RH  027%=      5-min Rain = 0
KPD3 202130Z 18005KT 17/M03 A3006 RMK A01 T01651027  RH  027%=      5-min Rain = 0
KPD3 202131Z 18005KT 17/M03 A3005 RMK A01 T01651029  RH  026%=      5-min Rain = 0
KPD3 202132Z 18004KT 16/M03 A3005 RMK A01 T01641029  RH  026%=      5-min Rain = 0
KPD3 202133Z 17006KT 16/M03 A3005 RMK A01 T01641028  RH  027%=      5-min Rain = 0
KPD3 202134Z 18007KT 17/M03 A3005 RMK A01 T01651027  RH  027%=      5-min Rain = 0
KPD3 202135Z 18007KT 17/M03 A3005 RMK A01 T01661028  RH  026%=      5-min Rain = 0
KPD3 202136Z 21006KT 16/M03 A3005 RMK A01 T01641029  RH  026%=      5-min Rain = 0
KPD3 202137Z 21005KT 16/M03 A3005 RMK A01 T01641029  RH  027%=      5-min Rain = 0
KPD3 202138Z 21004KT 16/M03 A3005 RMK A01 T01631029  RH  027%=      5-min Rain = 0
KPD3 202139Z 19003KT 16/M03 A3005 RMK A01 T01641028  RH  027%=      5-min Rain = 0
KPD3 202140Z 18005KT 17/M03 A3005 RMK A01 T01651027  RH  027%=      5-min Rain = 0
KPD3 202141Z 17008KT 17/M03 A3005 RMK A01 T01661027  RH  026%=      5-min Rain = 0
KPD3 202142Z 16008KT 17/M03 A3005 RMK A01 T01671027  RH  026%=      5-min Rain = 0
KPD3 202143Z 18011KT 17/M03 A3005 RMK A01 T01691026  RH  026%=      5-min Rain = 0
KPD3 202144Z 19009KT 17/M03 A3005 RMK A01 T01701027  RH  026%=      5-min Rain = 0
KPD3 202145Z 20008KT 17/M03 A3005 RMK A01 T01691028  RH  026%=      5-min Rain = 0
KPD3 202146Z 19008KT 17/M03 A3005 RMK A01 T01691028  RH  026%=      5-min Rain = 0
KPD3 202147Z 19007KT 17/M03 A3005 RMK A01 T01691027  RH  026%=      5-min Rain = 0
KPD3 202148Z 19005G11KT 17/M03 A3005 RMK A01 T01701027  RH  026%=      5-min Rain = 0
KPD3 202149Z 19009KT 17/M03 A3005 RMK A01 T01711026  RH  026%=      5-min Rain = 0
KPD3 202150Z 18008KT 17/M03 A3005 RMK A01 T01721028  RH  025%=      5-min Rain = 0
KPD3 202151Z 19006KT 17/M03 A3005 RMK A01 T01701029  RH  025%=      5-min Rain = 0
KPD3 202152Z 20008KT 17/M03 A3005 RMK A01 T01701029  RH  026%=      5-min Rain = 0
KPD3 202153Z 20005KT 17/M03 A3005 RMK A01 T01701029  RH  026%=      5-min Rain = 0
KPD3 202154Z 21007KT 17/M03 A3005 RMK A01 T01701027  RH  026%=      5-min Rain = 0
KPD3 202155Z 21006KT 17/M03 A3005 RMK A01 T01711028  RH  026%=      5-min Rain = 0
KPD3 202156Z 21007KT 17/M03 A3005 RMK A01 T01721027  RH  026%=      5-min Rain = 0
KPD3 202157Z 19008KT 17/M03 A3005 RMK A01 T01731027  RH  025%=      5-min Rain = 0
KPD3 202158Z 19009KT 17/M03 A3005 RMK A01 T01731027  RH  025%=      5-min Rain = 0
KPD3 202159Z 19009KT 17/M03 A3005 RMK A01 T01741028  RH  025%=      5-min Rain = 0
KPD3 202200Z 16008KT 17/M03 A3005 RMK A01 T01741028  RH  025%=      5-min Rain = 0
KPD3 202201Z 17006KT 17/M03 A3005 RMK A01 T01741028  RH  025%=      5-min Rain = 0
KPD3 202202Z 19005KT 17/M03 A3005 RMK A01 T01741028  RH  025%=      5-min Rain = 0
KPD3 202203Z 23006KT 17/M03 A3005 RMK A01 T01741028  RH  025%=      5-min Rain = 0
KPD3 202204Z 23006KT 17/M03 A3005 RMK A01 T01731029  RH  025%=      5-min Rain = 0
KPD3 202205Z 22008KT 17/M03 A3005 RMK A01 T01721029  RH  025%=      5-min Rain = 0
KPD3 202206Z 19011KT 17/M03 A3005 RMK A01 T01721029  RH  025%=      5-min Rain = 0
KPD3 202207Z 21010KT 17/M03 A3005 RMK A01 T01711031  RH  025%=      5-min Rain = 0
KPD3 202208Z 23010KT 17/M03 A3005 RMK A01 T01701030  RH  025%=      5-min Rain = 0
KPD3 202209Z 22010KT 17/M03 A3005 RMK A01 T01701031  RH  025%=      5-min Rain = 0
KPD3 202210Z 23010KT 17/M03 A3005 RMK A01 T01701031  RH  025%=      5-min Rain = 0
KPD3 202211Z 22011KT 17/M03 A3005 RMK A01 T01701031  RH  025%=      5-min Rain = 0
KPD3 202212Z 22009KT 17/M03 A3005 RMK A01 T01691032  RH  025%=      5-min Rain = 0
KPD3 202213Z 22008KT 17/M03 A3005 RMK A01 T01681032  RH  025%=      5-min Rain = 0
KPD3 202214Z 23010KT 17/M03 A3005 RMK A01 T01691031  RH  025%=      5-min Rain = 0
KPD3 202215Z 22011KT 17/M03 A3005 RMK A01 T01701031  RH  025%=      5-min Rain = 0
KPD3 202216Z 22011KT 17/M03 A3005 RMK A01 T01701032  RH  025%=      5-min Rain = 0
KPD3 202217Z 22010KT 17/M03 A3004 RMK A01 T01701032  RH  025%=      5-min Rain = 0
KPD3 202218Z 20011KT 17/M03 A3004 RMK A01 T01711031  RH  025%=      5-min Rain = 0
KPD3 202219Z 21011KT 17/M03 A3004 RMK A01 T01711031  RH  025%=      5-min Rain = 0
KPD3 202220Z 23008KT 17/M03 A3004 RMK A01 T01721030  RH  025%=      5-min Rain = 0
KPD3 202221Z 21009KT 17/M03 A3004 RMK A01 T01741029  RH  025%=      5-min Rain = 0
KPD3 202222Z 22008KT 17/M03 A3004 RMK A01 T01741031  RH  025%=      5-min Rain = 0
KPD3 202223Z 22008KT 17/M03 A3004 RMK A01 T01711033  RH  024%=      5-min Rain = 0
KPD3 202224Z 20008KT 17/M03 A3004 RMK A01 T01701032  RH  025%=      5-min Rain = 0
KPD3 202225Z 20007KT 17/M03 A3004 RMK A01 T01691032  RH  025%=      5-min Rain = 0
KPD3 202226Z 20008KT 17/M03 A3004 RMK A01 T01691033  RH  025%=      5-min Rain = 0
KPD3 202227Z 19008KT 17/M03 A3004 RMK A01 T01681032  RH  025%=      5-min Rain = 0
KPD3 202228Z 20007KT 17/M03 A3004 RMK A01 T01671032  RH  025%=      5-min Rain = 0
KPD3 202229Z 20008KT 17/M03 A3004 RMK A01 T01671031  RH  026%=      5-min Rain = 0
KPD3 202230Z 20008KT 17/M03 A3004 RMK A01 T01661032  RH  026%=      5-min Rain = 0
KPD3 202231Z 20007KT 17/M03 A3004 RMK A01 T01651032  RH  026%=      5-min Rain = 0
KPD3 202232Z 19007KT 17/M03 A3004 RMK A01 T01651031  RH  026%=      5-min Rain = 0
KPD3 202233Z 19006KT 17/M03 A3004 RMK A01 T01651031  RH  026%=      5-min Rain = 0
KPD3 202234Z 19005KT 16/M03 A3004 RMK A01 T01641031  RH  026%=      5-min Rain = 0
KPD3 202235Z 20006KT 16/M03 A3004 RMK A01 T01641031  RH  026%=      5-min Rain = 0
KPD3 202236Z 19008KT 16/M03 A3004 RMK A01 T01631030  RH  026%=      5-min Rain = 0
KPD3 202237Z 19007KT 16/M03 A3004 RMK A01 T01631031  RH  026%=      5-min Rain = 0
KPD3 202238Z 21006KT 16/M03 A3004 RMK A01 T01631030  RH  026%=      5-min Rain = 0
KPD3 202239Z 20006KT 16/M03 A3004 RMK A01 T01621031  RH  026%=      5-min Rain = 0
KPD3 202240Z 19008KT 16/M03 A3004 RMK A01 T01621031  RH  026%=      5-min Rain = 0
KPD3 202241Z 19007KT 16/M03 A3004 RMK A01 T01621031  RH  026%=      5-min Rain = 0
KPD3 202242Z 19006KT 16/M03 A3004 RMK A01 T01621030  RH  027%=      5-min Rain = 0
KPD3 202243Z 19008KT 16/M03 A3004 RMK A01 T01621029  RH  027%=      5-min Rain = 0
KPD3 202244Z 18007KT 16/M03 A3004 RMK A01 T01621029  RH  027%=      5-min Rain = 0
KPD3 202245Z 18007KT 16/M03 A3004 RMK A01 T01621029  RH  027%=      5-min Rain = 0
KPD3 202246Z 18007KT 16/M03 A3004 RMK A01 T01621028  RH  027%=      5-min Rain = 0
KPD3 202247Z 18007KT 16/M03 A3004 RMK A01 T01631028  RH  027%=      5-min Rain = 0
KPD3 202248Z 17007KT 16/M03 A3004 RMK A01 T01641027  RH  027%=      5-min Rain = 0
KPD3 202249Z 17006KT 17/M03 A3004 RMK A01 T01651028  RH  027%=      5-min Rain = 0
KPD3 202250Z 17007KT 17/M03 A3004 RMK A01 T01661027  RH  027%=      5-min Rain = 0
KPD3 202251Z 18006KT 17/M03 A3004 RMK A01 T01671026  RH  027%=      5-min Rain = 0
KPD3 202252Z 18005KT 17/M03 A3004 RMK A01 T01681027  RH  026%=      5-min Rain = 0
KPD3 202253Z 18005KT 17/M03 A3004 RMK A01 T01691025  RH  027%=      5-min Rain = 0
KPD3 202254Z 18007KT 17/M03 A3004 RMK A01 T01701027  RH  026%=      5-min Rain = 0
KPD3 202255Z 18006KT 17/M03 A3004 RMK A01 T01691028  RH  026%=      5-min Rain = 0
KPD3 202256Z 18006KT 17/M03 A3004 RMK A01 T01691026  RH  026%=      5-min Rain = 0
KPD3 202257Z 18006KT 17/M03 A3004 RMK A01 T01681027  RH  026%=      5-min Rain = 0
KPD3 202258Z 18006KT 17/M03 A3004 RMK A01 T01671028  RH  026%=      5-min Rain = 0
KPD3 202259Z 18006KT 17/M03 A3004 RMK A01 T01661028  RH  026%=      5-min Rain = 0
KPD3 202300Z 19007KT 17/M03 A3004 RMK A01 T01651028  RH  026%=      5-min Rain = 0
KPD3 202301Z 18007KT 16/M03 A3004 RMK A01 T01641028  RH  027%=      5-min Rain = 0
KPD3 202302Z 18008KT 16/M03 A3004 RMK A01 T01631028  RH  027%=      5-min Rain = 0
KPD3 202303Z 16008KT 16/M03 A3004 RMK A01 T01631027  RH  027%=      5-min Rain = 0
KPD3 202304Z 16009KT 16/M03 A3004 RMK A01 T01621027  RH  027%=      5-min Rain = 0
KPD3 202305Z 15008KT 16/M03 A3004 RMK A01 T01621027  RH  027%=      5-min Rain = 0
KPD3 202306Z 15008KT 16/M03 A3004 RMK A01 T01621027  RH  027%=      5-min Rain = 0
KPD3 202307Z 15007KT 16/M03 A3004 RMK A01 T01621027  RH  027%=      5-min Rain = 0
KPD3 202308Z 15008KT 16/M03 A3004 RMK A01 T01611027  RH  027%=      5-min Rain = 0
KPD3 202309Z 15007KT 16/M03 A3004 RMK A01 T01601028  RH  027%=      5-min Rain = 0
KPD3 202310Z 15008KT 16/M03 A3004 RMK A01 T01591028  RH  028%=      5-min Rain = 0
KPD3 202311Z 14007KT 16/M03 A3004 RMK A01 T01591028  RH  028%=      5-min Rain = 0
KPD3 202312Z 14006KT 16/M03 A3004 RMK A01 T01591028  RH  028%=      5-min Rain = 0
KPD3 202313Z 14007KT 16/M03 A3004 RMK A01 T01581027  RH  028%=      5-min Rain = 0
KPD3 202314Z 14006KT 16/M03 A3004 RMK A01 T01571028  RH  028%=      5-min Rain = 0
KPD3 202315Z 15007KT 16/M03 A3004 RMK A01 T01571027  RH  028%=      5-min Rain = 0
KPD3 202316Z 14007KT 16/M03 A3004 RMK A01 T01571027  RH  028%=      5-min Rain = 0
KPD3 202317Z 14007KT 16/M03 A3003 RMK A01 T01561027  RH  028%=      5-min Rain = 0
KPD3 202318Z 14006KT 16/M03 A3003 RMK A01 T01551027  RH  028%=      5-min Rain = 0
KPD3 202319Z 13006KT 16/M03 A3003 RMK A01 T01551027  RH  028%=      5-min Rain = 0
KPD3 202320Z 13006KT 15/M03 A3003 RMK A01 T01541027  RH  029%=      5-min Rain = 0
KPD3 202321Z 13007KT 15/M03 A3003 RMK A01 T01531028  RH  029%=      5-min Rain = 0
KPD3 202322Z 13007KT 15/M03 A3003 RMK A01 T01531028  RH  029%=      5-min Rain = 0
KPD3 202323Z 13007KT 15/M03 A3003 RMK A01 T01521028  RH  029%=      5-min Rain = 0
KPD3 202324Z 13006KT 15/M03 A3003 RMK A01 T01521028  RH  029%=      5-min Rain = 0
KPD3 202325Z 13006KT 15/M03 A3003 RMK A01 T01521027  RH  029%=      5-min Rain = 0
KPD3 202326Z 13006KT 15/M03 A3003 RMK A01 T01511028  RH  029%=      5-min Rain = 0
KPD3 202327Z 13006KT 15/M03 A3003 RMK A01 T01501028  RH  029%=      5-min Rain = 0
KPD3 202328Z 13006KT 15/M03 A3003 RMK A01 T01491028  RH  029%=      5-min Rain = 0
KPD3 202329Z 13006KT 15/M03 A3003 RMK A01 T01471029  RH  029%=      5-min Rain = 0
KPD3 202330Z 13006KT 15/M03 A3003 RMK A01 T01461029  RH  030%=      5-min Rain = 0
KPD3 202331Z 13006KT 15/M03 A3003 RMK A01 T01451029  RH  030%=      5-min Rain = 0
KPD3 202332Z 14006KT 14/M03 A3003 RMK A01 T01441030  RH  030%=      5-min Rain = 0
KPD3 202333Z 13007KT 14/M03 A3003 RMK A01 T01421030  RH  030%=      5-min Rain = 0
KPD3 202334Z 13009KT 14/M03 A3003 RMK A01 T01401030  RH  031%=      5-min Rain = 0
KPD3 202335Z 13008KT 14/M03 A3003 RMK A01 T01401028  RH  031%=      5-min Rain = 0
KPD3 202336Z 13010KT 14/M03 A3003 RMK A01 T01391027  RH  032%=      5-min Rain = 0
KPD3 202337Z 13010KT 14/M03 A3003 RMK A01 T01381026  RH  032%=      5-min Rain = 0
KPD3 202338Z 13011KT 14/M03 A3003 RMK A01 T01371026  RH  032%=      5-min Rain = 0
KPD3 202339Z 13012KT 14/M03 A3003 RMK A01 T01371025  RH  032%=      5-min Rain = 0
KPD3 202340Z 12011KT 14/M02 A3003 RMK A01 T01371024  RH  033%=      5-min Rain = 0
KPD3 202341Z 13010KT 14/M02 A3003 RMK A01 T01371023  RH  033%=      5-min Rain = 0
KPD3 202342Z 12010KT 14/M02 A3003 RMK A01 T01361024  RH  033%=      5-min Rain = 0
KPD3 202343Z 13009KT 13/M02 A3003 RMK A01 T01331023  RH  034%=      5-min Rain = 0
KPD3 202344Z 13009KT 13/M02 A3003 RMK A01 T01321023  RH  034%=      5-min Rain = 0
KPD3 202345Z 13010KT 13/M02 A3003 RMK A01 T01311023  RH  034%=      5-min Rain = 0
KPD3 202346Z 13009KT 13/M02 A3003 RMK A01 T01301023  RH  035%=      5-min Rain = 0
KPD3 202347Z 13009KT 13/M02 A3003 RMK A01 T01291023  RH  035%=      5-min Rain = 0
KPD3 202348Z 13009KT 13/M02 A3003 RMK A01 T01271023  RH  035%=      5-min Rain = 0
KPD3 202349Z 13009KT 13/M02 A3003 RMK A01 T01261023  RH  035%=      5-min Rain = 0
KPD3 202350Z 13009KT 13/M02 A3003 RMK A01 T01251023  RH  036%=      5-min Rain = 0
KPD3 202351Z 13009KT 12/M02 A3003 RMK A01 T01231024  RH  036%=      5-min Rain = 0
KPD3 202352Z 13011KT 12/M02 A3003 RMK A01 T01221023  RH  036%=      5-min Rain = 0
KPD3 202353Z 13011KT 12/M02 A3003 RMK A01 T01221023  RH  036%=      5-min Rain = 0
KPD3 202354Z 13010KT 12/M02 A3003 RMK A01 T01231023  RH  036%=      5-min Rain = 0
KPD3 202355Z 13010KT 12/M02 A3003 RMK A01 T01221024  RH  036%=      5-min Rain = 0
KPD3 202356Z 13010KT 12/M02 A3003 RMK A01 T01211024  RH  036%=      5-min Rain = 0
KPD3 202357Z 13010KT 12/M02 A3003 RMK A01 T01191024  RH  037%=      5-min Rain = 0
KPD3 202358Z 14011KT 12/M03 A3003 RMK A01 T01171025  RH  037%=      5-min Rain = 0
KPD3 202359Z 13010KT 12/M03 A3003 RMK A01 T01161025  RH  037%=      5-min Rain = 0
KPD3 210000Z 13010KT 12/M03 A3003 RMK A01 T01151025  RH  037%=      5-min Rain = 0
KPD3 210001Z 14010KT 11/M03 A3003 RMK A01 T01141025  RH  038%=      5-min Rain = 0
KPD3 210002Z 14010KT 11/M03 A3003 RMK A01 T01131025  RH  038%=      5-min Rain = 0
KPD3 210003Z 13010KT 11/M03 A3003 RMK A01 T01121026  RH  038%=      5-min Rain = 0
KPD3 210004Z 13009KT 11/M03 A3003 RMK A01 T01111026  RH  038%=      5-min Rain = 0
KPD3 210005Z 13009KT 11/M03 A3003 RMK A01 T01101026  RH  038%=      5-min Rain = 0
KPD3 210006Z 13008KT 11/M03 A3003 RMK A01 T01091026  RH  039%=      5-min Rain = 0
KPD3 210007Z 13008KT 11/M03 A3003 RMK A01 T01081027  RH  039%=      5-min Rain = 0
KPD3 210008Z 13008KT 11/M03 A3003 RMK A01 T01071027  RH  039%=      5-min Rain = 0
KPD3 210009Z 13008KT 11/M03 A3003 RMK A01 T01061027  RH  039%=      5-min Rain = 0
KPD3 210010Z 13008KT 10/M03 A3003 RMK A01 T01041028  RH  040%=      5-min Rain = 0
KPD3 210011Z 13009KT 10/M03 A3003 RMK A01 T01021028  RH  040%=      5-min Rain = 0
KPD3 210012Z 13009KT 10/M03 A3003 RMK A01 T01011027  RH  040%=      5-min Rain = 0
KPD3 210013Z 13009KT 10/M03 A3003 RMK A01 T00991028  RH  041%=      5-min Rain = 0
KPD3 210014Z 13009KT 10/M03 A3003 RMK A01 T00991028  RH  041%=      5-min Rain = 0
KPD3 210015Z 13008KT 10/M03 A3003 RMK A01 T00991028  RH  041%=      5-min Rain = 0
KPD3 210016Z 13008KT 10/M03 A3003 RMK A01 T00991027  RH  041%=      5-min Rain = 0
KPD3 210017Z 13008KT 10/M03 A3003 RMK A01 T00971028  RH  041%=      5-min Rain = 0
KPD3 210018Z 13008KT 10/M03 A3003 RMK A01 T00951029  RH  041%=      5-min Rain = 0
KPD3 210019Z 13008KT 09/M03 A3003 RMK A01 T00941029  RH  042%=      5-min Rain = 0
KPD3 210020Z 13008KT 09/M03 A3003 RMK A01 T00931029  RH  042%=      5-min Rain = 0
KPD3 210021Z 13008KT 09/M03 A3003 RMK A01 T00931029  RH  042%=      5-min Rain = 0
KPD3 210022Z 13008KT 09/M03 A3003 RMK A01 T00921029  RH  042%=      5-min Rain = 0
KPD3 210023Z 13008KT 09/M03 A3003 RMK A01 T00921029  RH  043%=      5-min Rain = 0
KPD3 210024Z 13008KT 09/M03 A3003 RMK A01 T00911029  RH  043%=      5-min Rain = 0
KPD3 210025Z 13008KT 09/M03 A3003 RMK A01 T00901030  RH  043%=      5-min Rain = 0
KPD3 210026Z 13008KT 09/M03 A3003 RMK A01 T00901029  RH  043%=      5-min Rain = 0
KPD3 210027Z 13008KT 09/M03 A3003 RMK A01 T00901029  RH  043%=      5-min Rain = 0
KPD3 210028Z 13007KT 09/M03 A3003 RMK A01 T00911029  RH  043%=      5-min Rain = 0
KPD3 210029Z 13007KT 09/M03 A3003 RMK A01 T00901029  RH  043%=      5-min Rain = 0
KPD3 210030Z 13007KT 09/M03 A3003 RMK A01 T00901029  RH  043%=      5-min Rain = 0
KPD3 210031Z 13007KT 09/M03 A3003 RMK A01 T00891030  RH  043%=      5-min Rain = 0
KPD3 210032Z 13006KT 09/M03 A3003 RMK A01 T00881031  RH  043%=      5-min Rain = 0
KPD3 210033Z 13006KT 09/M03 A3003 RMK A01 T00871031  RH  043%=      5-min Rain = 0
KPD3 210034Z 13006KT 09/M03 A3003 RMK A01 T00861031  RH  044%=      5-min Rain = 0
KPD3 210035Z 14006KT 08/M03 A3003 RMK A01 T00841032  RH  044%=      5-min Rain = 0
KPD3 210036Z 13006KT 08/M03 A3003 RMK A01 T00831032  RH  044%=      5-min Rain = 0
KPD3 210037Z 13006KT 08/M03 A3003 RMK A01 T00821032  RH  044%=      5-min Rain = 0
KPD3 210038Z 13006KT 08/M03 A3003 RMK A01 T00811033  RH  044%=      5-min Rain = 0
KPD3 210039Z 13006KT 08/M03 A3003 RMK A01 T00801033  RH  045%=      5-min Rain = 0
KPD3 210040Z 13006KT 08/M03 A3003 RMK A01 T00791033  RH  045%=      5-min Rain = 0
KPD3 210041Z 13006KT 08/M03 A3003 RMK A01 T00781034  RH  045%=      5-min Rain = 0
KPD3 210042Z 13006KT 08/M04 A3003 RMK A01 T00771035  RH  045%=      5-min Rain = 0
KPD3 210043Z 14005KT 08/M03 A3003 RMK A01 T00771034  RH  046%=      5-min Rain = 0
KPD3 210044Z 14006KT 08/M03 A3003 RMK A01 T00761034  RH  046%=      5-min Rain = 0
KPD3 210045Z 14005KT 08/M03 A3003 RMK A01 T00761034  RH  046%=      5-min Rain = 0
KPD3 210046Z 14005KT 08/M03 A3003 RMK A01 T00751034  RH  046%=      5-min Rain = 0
KPD3 210047Z 13006KT 08/M03 A3003 RMK A01 T00751034  RH  046%=      5-min Rain = 0
KPD3 210048Z 13006KT 08/M03 A3003 RMK A01 T00751034  RH  046%=      5-min Rain = 0
KPD3 210049Z 13005KT 07/M04 A3003 RMK A01 T00741035  RH  046%=      5-min Rain = 0
KPD3 210050Z 13005KT 07/M04 A3004 RMK A01 T00731035  RH  046%=      5-min Rain = 0
KPD3 210051Z 13005KT 07/M04 A3004 RMK A01 T00721035  RH  047%=      5-min Rain = 0
KPD3 210052Z 13005KT 07/M04 A3004 RMK A01 T00711035  RH  047%=      5-min Rain = 0
KPD3 210053Z 13006KT 07/M04 A3004 RMK A01 T00701035  RH  047%=      5-min Rain = 0
KPD3 210054Z 13005KT 07/M04 A3004 RMK A01 T00701035  RH  047%=      5-min Rain = 0
KPD3 210055Z 13005KT 07/M04 A3004 RMK A01 T00691035  RH  047%=      5-min Rain = 0
KPD3 210056Z 13004KT 07/M04 A3004 RMK A01 T00691035  RH  047%=      5-min Rain = 0
KPD3 210057Z 13004KT 07/M04 A3004 RMK A01 T00681036  RH  047%=      5-min Rain = 0
KPD3 210058Z 13004KT 07/M04 A3004 RMK A01 T00681035  RH  048%=      5-min Rain = 0
KPD3 210059Z 13004KT 07/M04 A3004 RMK A01 T00681035  RH  048%=      5-min Rain = 0
KPD3 210100Z 13003KT 07/M04 A3004 RMK A01 T00681035  RH  048%=      5-min Rain = 0
KPD3 210101Z 13003KT 07/M04 A3004 RMK A01 T00671036  RH  048%=      5-min Rain = 0
KPD3 210102Z 13004KT 07/M04 A3004 RMK A01 T00671035  RH  048%=      5-min Rain = 0
KPD3 210103Z 13003KT 07/M03 A3004 RMK A01 T00671034  RH  048%=      5-min Rain = 0
KPD3 210104Z 13003KT 07/M03 A3004 RMK A01 T00671034  RH  048%=      5-min Rain = 0
KPD3 210105Z 13003KT 07/M03 A3004 RMK A01 T00671034  RH  048%=      5-min Rain = 0
KPD3 210106Z 13004KT 07/M03 A3004 RMK A01 T00661034  RH  049%=      5-min Rain = 0
KPD3 210107Z 13003KT 07/M03 A3004 RMK A01 T00661034  RH  049%=      5-min Rain = 0
KPD3 210108Z 14003KT 07/M04 A3004 RMK A01 T00661035  RH  049%=      5-min Rain = 0
KPD3 210109Z 14002KT 07/M03 A3004 RMK A01 T00661034  RH  049%=      5-min Rain = 0
KPD3 210110Z 14002KT 07/M04 A3004 RMK A01 T00651035  RH  049%=      5-min Rain = 0
KPD3 210111Z 15002KT 07/M04 A3004 RMK A01 T00651035  RH  049%=      5-min Rain = 0
KPD3 210112Z 15002KT 07/M04 A3004 RMK A01 T00651035  RH  049%=      5-min Rain = 0
KPD3 210113Z 14002KT 07/M04 A3004 RMK A01 T00651035  RH  049%=      5-min Rain = 0
KPD3 210114Z 15002KT 07/M03 A3004 RMK A01 T00651034  RH  049%=      5-min Rain = 0
KPD3 210115Z 15002KT 07/M03 A3004 RMK A01 T00651034  RH  049%=      5-min Rain = 0
KPD3 210116Z 15002KT 07/M04 A3004 RMK A01 T00651035  RH  049%=      5-min Rain = 0
KPD3 210117Z 15002KT 07/M04 A3004 RMK A01 T00651035  RH  049%=      5-min Rain = 0
KPD3 210118Z 16002KT 07/M04 A3004 RMK A01 T00651035  RH  049%=      5-min Rain = 0
KPD3 210119Z 15002KT 06/M04 A3004 RMK A01 T00641035  RH  049%=      5-min Rain = 0
KPD3 210120Z 18001KT 06/M04 A3004 RMK A01 T00641035  RH  049%=      5-min Rain = 0
KPD3 210121Z 16002KT 06/M04 A3004 RMK A01 T00641036  RH  049%=      5-min Rain = 0
KPD3 210122Z 15002KT 06/M03 A3004 RMK A01 T00631034  RH  050%=      5-min Rain = 0
KPD3 210123Z 14002KT 06/M03 A3004 RMK A01 T00641033  RH  050%=      5-min Rain = 0
KPD3 210124Z 15002KT 07/M03 A3004 RMK A01 T00651033  RH  050%=      5-min Rain = 0
KPD3 210125Z 14002KT 07/M03 A3004 RMK A01 T00651034  RH  049%=      5-min Rain = 0
KPD3 210126Z 15002KT 07/M03 A3004 RMK A01 T00651034  RH  049%=      5-min Rain = 0
KPD3 210127Z 14002KT 06/M03 A3004 RMK A01 T00641034  RH  049%=      5-min Rain = 0
KPD3 210128Z 13002KT 06/M03 A3004 RMK A01 T00641034  RH  050%=      5-min Rain = 0
KPD3 210129Z 13002KT 06/M03 A3004 RMK A01 T00641033  RH  050%=      5-min Rain = 0
KPD3 210130Z 14003KT 06/M03 A3004 RMK A01 T00641033  RH  050%=      5-min Rain = 0
KPD3 210131Z 14003KT 06/M03 A3004 RMK A01 T00641033  RH  050%=      5-min Rain = 0
KPD3 210132Z 13002KT 06/M03 A3004 RMK A01 T00641033  RH  050%=      5-min Rain = 0
KPD3 210133Z 13003KT 06/M03 A3004 RMK A01 T00641032  RH  050%=      5-min Rain = 0
KPD3 210134Z 13003KT 06/M03 A3004 RMK A01 T00641032  RH  050%=      5-min Rain = 0
KPD3 210135Z 13003KT 06/M03 A3004 RMK A01 T00641032  RH  050%=      5-min Rain = 0
KPD3 210136Z 12003KT 06/M03 A3004 RMK A01 T00641032  RH  050%=      5-min Rain = 0
KPD3 210137Z 13004KT 06/M03 A3004 RMK A01 T00641032  RH  050%=      5-min Rain = 0
KPD3 210138Z 12003KT 06/M03 A3004 RMK A01 T00641031  RH  050%=      5-min Rain = 0
KPD3 210139Z 13003KT 07/M03 A3004 RMK A01 T00651031  RH  050%=      5-min Rain = 0
KPD3 210140Z 13003KT 07/M03 A3004 RMK A01 T00661031  RH  050%=      5-min Rain = 0
KPD3 210141Z 13003KT 07/M03 A3004 RMK A01 T00661031  RH  050%=      5-min Rain = 0
KPD3 210142Z 14003KT 07/M03 A3004 RMK A01 T00651032  RH  050%=      5-min Rain = 0
KPD3 210143Z 13002KT 06/M03 A3004 RMK A01 T00641031  RH  050%=      5-min Rain = 0
KPD3 210144Z 14003KT 06/M03 A3004 RMK A01 T00641031  RH  051%=      5-min Rain = 0
KPD3 210145Z 14003KT 06/M03 A3004 RMK A01 T00641031  RH  051%=      5-min Rain = 0
KPD3 210146Z 14003KT 06/M03 A3004 RMK A01 T00631032  RH  051%=      5-min Rain = 0
KPD3 210147Z 14003KT 06/M03 A3003 RMK A01 T00631031  RH  051%=      5-min Rain = 0
KPD3 210148Z 15002KT 06/M03 A3003 RMK A01 T00631031  RH  051%=      5-min Rain = 0
KPD3 210149Z 15001KT 06/M03 A3003 RMK A01 T00621031  RH  051%=      5-min Rain = 0
KPD3 210150Z 15003KT 06/M03 A3004 RMK A01 T00621032  RH  051%=      5-min Rain = 0
KPD3 210151Z 14003KT 06/M03 A3003 RMK A01 T00611031  RH  051%=      5-min Rain = 0
KPD3 210152Z 14002KT 06/M03 A3003 RMK A01 T00621030  RH  052%=      5-min Rain = 0
KPD3 210153Z 15002KT 06/M03 A3003 RMK A01 T00611031  RH  052%=      5-min Rain = 0
KPD3 210154Z 15002KT 06/M03 A3003 RMK A01 T00611032  RH  051%=      5-min Rain = 0
KPD3 210155Z 16002KT 06/M03 A3003 RMK A01 T00601032  RH  052%=      5-min Rain = 0
KPD3 210156Z 16002KT 06/M03 A3003 RMK A01 T00601031  RH  052%=      5-min Rain = 0
KPD3 210157Z 15002KT 06/M03 A3003 RMK A01 T00601031  RH  052%=      5-min Rain = 0
KPD3 210158Z 15003KT 06/M03 A3003 RMK A01 T00601031  RH  052%=      5-min Rain = 0
KPD3 210159Z 15003KT 06/M03 A3003 RMK A01 T00601031  RH  052%=      5-min Rain = 0
KPD3 210200Z 15003KT 06/M03 A3003 RMK A01 T00591031  RH  052%=      5-min Rain = 0
KPD3 210201Z 16003KT 06/M03 A3003 RMK A01 T00591031  RH  052%=      5-min Rain = 0
KPD3 210202Z 16003KT 06/M03 A3003 RMK A01 T00591031  RH  053%=      5-min Rain = 0
KPD3 210203Z 16003KT 06/M03 A3003 RMK A01 T00591031  RH  052%=      5-min Rain = 0
KPD3 210204Z 16003KT 06/M03 A3003 RMK A01 T00591031  RH  052%=      5-min Rain = 0
KPD3 210205Z 16003KT 06/M03 A3003 RMK A01 T00581031  RH  052%=      5-min Rain = 0
KPD3 210206Z 15002KT 06/M03 A3003 RMK A01 T00581032  RH  052%=      5-min Rain = 0
KPD3 210207Z 15002KT 06/M03 A3003 RMK A01 T00561034  RH  052%=      5-min Rain = 0
KPD3 210208Z 14002KT 06/M03 A3003 RMK A01 T00551034  RH  053%=      5-min Rain = 0
KPD3 210209Z 14002KT 05/M03 A3003 RMK A01 T00541033  RH  053%=      5-min Rain = 0
KPD3 210210Z 14002KT 05/M03 A3003 RMK A01 T00531033  RH  054%=      5-min Rain = 0
KPD3 210211Z 15001KT 05/M03 A3003 RMK A01 T00521034  RH  054%=      5-min Rain = 0
KPD3 210212Z 14001KT 05/M04 A3003 RMK A01 T00501036  RH  054%=      5-min Rain = 0
KPD3 210213Z 14001KT 05/M04 A3003 RMK A01 T00491035  RH  054%=      5-min Rain = 0
KPD3 210214Z 15001KT 05/M04 A3003 RMK A01 T00491035  RH  055%=      5-min Rain = 0
KPD3 210215Z 15001KT 05/M03 A3003 RMK A01 T00481034  RH  055%=      5-min Rain = 0
KPD3 210216Z 00000KT 05/M03 A3003 RMK A01 T00481034  RH  055%=      5-min Rain = 0
KPD3 210217Z 18000KT 05/M03 A3003 RMK A01 T00481033  RH  055%=      5-min Rain = 0
KPD3 210218Z 00000KT 05/M03 A3003 RMK A01 T00481033  RH  056%=      5-min Rain = 0
KPD3 210219Z 00000KT 05/M03 A3003 RMK A01 T00491033  RH  055%=      5-min Rain = 0
KPD3 210220Z 25000KT 05/M03 A3003 RMK A01 T00501032  RH  055%=      5-min Rain = 0
KPD3 210221Z 12000KT 05/M03 A3003 RMK A01 T00491033  RH  055%=      5-min Rain = 0
KPD3 210222Z 11000KT 05/M03 A3003 RMK A01 T00501032  RH  055%=      5-min Rain = 0
KPD3 210223Z 13000KT 05/M03 A3003 RMK A01 T00501033  RH  055%=      5-min Rain = 0
KPD3 210224Z 12002KT 05/M03 A3003 RMK A01 T00491032  RH  056%=      5-min Rain = 0
KPD3 210225Z 12001KT 05/M03 A3003 RMK A01 T00501031  RH  056%=      5-min Rain = 0
KPD3 210226Z 14001KT 05/M03 A3003 RMK A01 T00511032  RH  055%=      5-min Rain = 0
KPD3 210227Z 13002KT 05/M03 A3003 RMK A01 T00501032  RH  055%=      5-min Rain = 0
KPD3 210228Z 13002KT 05/M03 A3003 RMK A01 T00501033  RH  055%=      5-min Rain = 0
KPD3 210229Z 15001KT 05/M03 A3003 RMK A01 T00491032  RH  056%=      5-min Rain = 0
KPD3 210230Z 13002KT 05/M03 A3003 RMK A01 T00491033  RH  055%=      5-min Rain = 0
KPD3 210231Z 13002KT 05/M04 A3003 RMK A01 T00481035  RH  055%=      5-min Rain = 0
KPD3 210232Z 13002KT 05/M04 A3003 RMK A01 T00461036  RH  055%=      5-min Rain = 0
KPD3 210233Z 13002KT 05/M03 A3003 RMK A01 T00451034  RH  056%=      5-min Rain = 0
KPD3 210234Z 13003KT 04/M04 A3003 RMK A01 T00441035  RH  056%=      5-min Rain = 0
KPD3 210235Z 13003KT 04/M03 A3003 RMK A01 T00441034  RH  057%=      5-min Rain = 0
KPD3 210236Z 14002KT 04/M03 A3003 RMK A01 T00431034  RH  057%=      5-min Rain = 0
KPD3 210237Z 14003KT 04/M03 A3003 RMK A01 T00431034  RH  057%=      5-min Rain = 0
KPD3 210238Z 14002KT 04/M03 A3003 RMK A01 T00431034  RH  057%=      5-min Rain = 0
KPD3 210239Z 14002KT 04/M03 A3003 RMK A01 T00421034  RH  057%=      5-min Rain = 0
KPD3 210240Z 14002KT 04/M04 A3003 RMK A01 T00421036  RH  057%=      5-min Rain = 0
KPD3 210241Z 14003KT 04/M04 A3003 RMK A01 T00411035  RH  058%=      5-min Rain = 0
KPD3 210242Z 13003KT 04/M03 A3003 RMK A01 T00411034  RH  058%=      5-min Rain = 0
KPD3 210243Z 13003KT 04/M03 A3003 RMK A01 T00401034  RH  058%=      5-min Rain = 0
KPD3 210244Z 14003KT 04/M03 A3003 RMK A01 T00401033  RH  059%=      5-min Rain = 0
KPD3 210245Z 14003KT 04/M03 A3003 RMK A01 T00411033  RH  059%=      5-min Rain = 0
KPD3 210246Z 14003KT 04/M03 A3003 RMK A01 T00411033  RH  059%=      5-min Rain = 0
KPD3 210247Z 14002KT 04/M03 A3003 RMK A01 T00411034  RH  058%=      5-min Rain = 0
KPD3 210248Z 14002KT 04/M03 A3003 RMK A01 T00411034  RH  058%=      5-min Rain = 0
KPD3 210249Z 15003KT 04/M03 A3003 RMK A01 T00411033  RH  059%=      5-min Rain = 0
KPD3 210250Z 14002KT 04/M03 A3002 RMK A01 T00411033  RH  059%=      5-min Rain = 0
KPD3 210251Z 15001KT 04/M03 A3003 RMK A01 T00411033  RH  059%=      5-min Rain = 0
KPD3 210252Z 14001KT 04/M03 A3003 RMK A01 T00411033  RH  059%=      5-min Rain = 0
KPD3 210253Z 14001KT 04/M03 A3003 RMK A01 T00411032  RH  059%=      5-min Rain = 0
KPD3 210254Z 14002KT 04/M03 A3002 RMK A01 T00411032  RH  059%=      5-min Rain = 0
KPD3 210255Z 13001KT 04/M03 A3002 RMK A01 T00411032  RH  059%=      5-min Rain = 0
KPD3 210256Z 12002KT 04/M03 A3002 RMK A01 T00401031  RH  060%=      5-min Rain = 0
KPD3 210257Z 14001KT 04/M03 A3002 RMK A01 T00401031  RH  060%=      5-min Rain = 0
KPD3 210258Z 16000KT 04/M03 A3002 RMK A01 T00401032  RH  060%=      5-min Rain = 0
KPD3 210259Z 14001KT 04/M03 A3002 RMK A01 T00401031  RH  060%=      5-min Rain = 0
KPD3 210300Z 14001KT 04/M03 A3002 RMK A01 T00391031  RH  060%=      5-min Rain = 0
KPD3 210301Z 13002KT 04/M03 A3002 RMK A01 T00391030  RH  061%=      5-min Rain = 0
KPD3 210302Z 14001KT 04/M03 A3002 RMK A01 T00391029  RH  061%=      5-min Rain = 0
KPD3 210303Z 12002KT 04/M03 A3002 RMK A01 T00401029  RH  061%=      5-min Rain = 0
KPD3 210304Z 14001KT 04/M03 A3002 RMK A01 T00411028  RH  061%=      5-min Rain = 0
KPD3 210305Z 13002KT 04/M03 A3003 RMK A01 T00411029  RH  060%=      5-min Rain = 0
KPD3 210306Z 13001KT 04/M03 A3003 RMK A01 T00411029  RH  060%=      5-min Rain = 0
KPD3 210307Z 14002KT 04/M03 A3003 RMK A01 T00411030  RH  060%=      5-min Rain = 0
KPD3 210308Z 13002KT 04/M03 A3002 RMK A01 T00411029  RH  060%=      5-min Rain = 0
KPD3 210309Z 12002KT 04/M03 A3002 RMK A01 T00421028  RH  060%=      5-min Rain = 0
KPD3 210310Z 13001KT 04/M03 A3002 RMK A01 T00421028  RH  060%=      5-min Rain = 0
KPD3 210311Z 14002KT 04/M03 A3002 RMK A01 T00421029  RH  060%=      5-min Rain = 0
KPD3 210312Z 14002KT 04/M03 A3002 RMK A01 T00421028  RH  060%=      5-min Rain = 0
KPD3 210313Z 15001KT 04/M03 A3002 RMK A01 T00421028  RH  060%=      5-min Rain = 0
KPD3 210314Z 15002KT 04/M03 A3002 RMK A01 T00421029  RH  060%=      5-min Rain = 0
KPD3 210315Z 15001KT 04/M03 A3002 RMK A01 T00421029  RH  060%=      5-min Rain = 0
KPD3 210316Z 16001KT 04/M03 A3002 RMK A01 T00421029  RH  060%=      5-min Rain = 0
KPD3 210317Z 17001KT 04/M03 A3002 RMK A01 T00421029  RH  060%=      5-min Rain = 0
KPD3 210318Z 16002KT 04/M03 A3002 RMK A01 T00411029  RH  060%=      5-min Rain = 0
KPD3 210319Z 16002KT 04/M03 A3002 RMK A01 T00411029  RH  060%=      5-min Rain = 0
KPD3 210320Z 16002KT 04/M03 A3002 RMK A01 T00411028  RH  061%=      5-min Rain = 0
KPD3 210321Z 16002KT 04/M03 A3002 RMK A01 T00421027  RH  061%=      5-min Rain = 0
KPD3 210322Z 16002KT 04/M03 A3002 RMK A01 T00421028  RH  060%=      5-min Rain = 0
KPD3 210323Z 16002KT 04/M03 A3002 RMK A01 T00421028  RH  060%=      5-min Rain = 0
KPD3 210324Z 16002KT 04/M03 A3001 RMK A01 T00411029  RH  060%=      5-min Rain = 0
KPD3 210325Z 16002KT 04/M03 A3001 RMK A01 T00401030  RH  060%=      5-min Rain = 0
KPD3 210326Z 15002KT 04/M03 A3001 RMK A01 T00391030  RH  061%=      5-min Rain = 0
KPD3 210327Z 16002KT 04/M03 A3001 RMK A01 T00391030  RH  061%=      5-min Rain = 0
KPD3 210328Z 15002KT 04/M03 A3001 RMK A01 T00371032  RH  061%=      5-min Rain = 0
KPD3 210329Z 15002KT 04/M03 A3001 RMK A01 T00361030  RH  062%=      5-min Rain = 0
KPD3 210330Z 15002KT 04/M03 A3001 RMK A01 T00361030  RH  062%=      5-min Rain = 0
KPD3 210331Z 16002KT 04/M03 A3001 RMK A01 T00351032  RH  062%=      5-min Rain = 0
KPD3 210332Z 15003KT 03/M03 A3001 RMK A01 T00341030  RH  063%=      5-min Rain = 0
KPD3 210333Z 15001KT 04/M03 A3001 RMK A01 T00351030  RH  063%=      5-min Rain = 0
KPD3 210334Z 15002KT 03/M03 A3001 RMK A01 T00341029  RH  063%=      5-min Rain = 0
KPD3 210335Z 15002KT 03/M03 A3001 RMK A01 T00341029  RH  063%=      5-min Rain = 0
KPD3 210336Z 15002KT 04/M03 A3001 RMK A01 T00351028  RH  063%=      5-min Rain = 0
KPD3 210337Z 16002KT 04/M03 A3001 RMK A01 T00361027  RH  063%=      5-min Rain = 0
KPD3 210338Z 15002KT 04/M03 A3001 RMK A01 T00361027  RH  063%=      5-min Rain = 0
KPD3 210339Z 15002KT 04/M03 A3001 RMK A01 T00371027  RH  063%=      5-min Rain = 0
KPD3 210340Z 14002KT 04/M03 A3001 RMK A01 T00371027  RH  063%=      5-min Rain = 0
KPD3 210341Z 14002KT 04/M03 A3001 RMK A01 T00371027  RH  063%=      5-min Rain = 0
KPD3 210342Z 14002KT 04/M03 A3001 RMK A01 T00371027  RH  063%=      5-min Rain = 0
KPD3 210343Z 13002KT 04/M03 A3001 RMK A01 T00371026  RH  063%=      5-min Rain = 0
KPD3 210344Z 14001KT 04/M03 A3001 RMK A01 T00371027  RH  063%=      5-min Rain = 0
KPD3 210345Z 14001KT 04/M03 A3001 RMK A01 T00371028  RH  063%=      5-min Rain = 0
KPD3 210346Z 14001KT 04/M03 A3001 RMK A01 T00361029  RH  063%=      5-min Rain = 0
KPD3 210347Z 14001KT 04/M03 A3001 RMK A01 T00351029  RH  063%=      5-min Rain = 0
KPD3 210348Z 15001KT 04/M03 A3001 RMK A01 T00351027  RH  064%=      5-min Rain = 0
KPD3 210349Z 12001KT 03/M03 A3001 RMK A01 T00341028  RH  064%=      5-min Rain = 0
KPD3 210350Z 11001KT 03/M03 A3001 RMK A01 T00341026  RH  065%=      5-min Rain = 0
KPD3 210351Z 10001KT 04/M03 A3001 RMK A01 T00351025  RH  065%=      5-min Rain = 0
KPD3 210352Z 11001KT 04/M03 A3001 RMK A01 T00351026  RH  064%=      5-min Rain = 0
KPD3 210353Z 11001KT 04/M03 A3001 RMK A01 T00351026  RH  064%=      5-min Rain = 0
KPD3 210354Z 11001KT 04/M03 A3001 RMK A01 T00351026  RH  064%=      5-min Rain = 0
KPD3 210355Z 11001KT 04/M03 A3001 RMK A01 T00351025  RH  065%=      5-min Rain = 0
KPD3 210356Z 10002KT 04/M03 A3001 RMK A01 T00351026  RH  064%=      5-min Rain = 0
KPD3 210357Z 11001KT 04/M03 A3001 RMK A01 T00351025  RH  065%=      5-min Rain = 0
KPD3 210358Z 12001KT 04/M03 A3001 RMK A01 T00351025  RH  065%=      5-min Rain = 0
KPD3 210359Z 12001KT 04/M03 A3001 RMK A01 T00351025  RH  065%=      5-min Rain = 0
KPD3 210400Z 11001KT 04/M02 A3001 RMK A01 T00351024  RH  065%=      5-min Rain = 0
KPD3 210401Z 12001KT 03/M03 A3001 RMK A01 T00341025  RH  065%=      5-min Rain = 0
KPD3 210402Z 12001KT 03/M03 A3001 RMK A01 T00341025  RH  065%=      5-min Rain = 0
KPD3 210403Z 13001KT 03/M03 A3001 RMK A01 T00341025  RH  065%=      5-min Rain = 0
KPD3 210404Z 12002KT 03/M03 A3001 RMK A01 T00341025  RH  065%=      5-min Rain = 0
KPD3 210405Z 12001KT 03/M03 A3001 RMK A01 T00331025  RH  066%=      5-min Rain = 0
KPD3 210406Z 11001KT 03/M03 A30 RMK A01 T00331025  RH  066%=      5-min Rain = 0
KPD3 210407Z 11001KT 03/M03 A30 RMK A01 T00331025  RH  066%=      5-min Rain = 0
KPD3 210408Z 11001KT 03/M03 A30 RMK A01 T00331025  RH  066%=      5-min Rain = 0
KPD3 210409Z 09000KT 03/M03 A30 RMK A01 T00331025  RH  066%=      5-min Rain = 0
KPD3 210410Z 11000KT 03/M03 A30 RMK A01 T00311029  RH  065%=      5-min Rain = 0
KPD3 210411Z 00000KT 03/M03 A30 RMK A01 T00291029  RH  065%=      5-min Rain = 0
KPD3 210412Z 00000KT 03/M03 A30 RMK A01 T00271031  RH  066%=      5-min Rain = 0
KPD3 210413Z 00000KT 02/M04 A30 RMK A01 T00221037  RH  065%=      5-min Rain = 0
KPD3 210414Z 00000KT 02/M04 A30 RMK A01 T00181039  RH  066%=      5-min Rain = 0
KPD3 210415Z 00000KT 01/M04 A30 RMK A01 T00141039  RH  068%=      5-min Rain = 0
KPD3 210416Z 00000KT 02/M03 A30 RMK A01 T00151032  RH  071%=      5-min Rain = 0
KPD3 210417Z 00000KT 02/M04 A30 RMK A01 T00161035  RH  069%=      5-min Rain = 0
KPD3 210418Z 29000KT 01/M04 A30 RMK A01 T00131038  RH  069%=      5-min Rain = 0
KPD3 210419Z 00000KT 01/M04 A30 RMK A01 T00111038  RH  070%=      5-min Rain = 0
KPD3 210420Z 00000KT 01/M04 A30 RMK A01 T00101041  RH  069%=      5-min Rain = 0
KPD3 210421Z 22000KT 01/M04 A30 RMK A01 T00061042  RH  070%=      5-min Rain = 0
KPD3 210422Z 26000KT 01/M04 A30 RMK A01 T00061040  RH  071%=      5-min Rain = 0
KPD3 210423Z 26000KT 01/M04 A30 RMK A01 T00051041  RH  071%=      5-min Rain = 0
KPD3 210424Z 14001KT 00/M04 A30 RMK A01 T00041041  RH  072%=      5-min Rain = 0
KPD3 210425Z 07000KT 00/M04 A30 RMK A01 T00031040  RH  073%=      5-min Rain = 0
KPD3 210426Z 00000KT 00/M04 A30 RMK A01 T00031039  RH  073%=      5-min Rain = 0
KPD3 210427Z 26000KT 00/M04 A30 RMK A01 T00041037  RH  074%=      5-min Rain = 0
KPD3 210428Z 00000KT 01/M04 A30 RMK A01 T00061035  RH  074%=      5-min Rain = 0
KPD3 210429Z 29000KT 01/M03 A30 RMK A01 T00071034  RH  074%=      5-min Rain = 0
KPD3 210430Z 28000KT 01/M04 A30 RMK A01 T00081036  RH  072%=      5-min Rain = 0
KPD3 210431Z 26000KT 01/M04 A30 RMK A01 T00071035  RH  073%=      5-min Rain = 0
KPD3 210432Z 27001KT 01/M03 A30 RMK A01 T00101033  RH  073%=      5-min Rain = 0
KPD3 210433Z 27000KT 01/M04 A30 RMK A01 T00071040  RH  071%=      5-min Rain = 0
KPD3 210434Z 27000KT 01/M04 A30 RMK A01 T00051040  RH  072%=      5-min Rain = 0
KPD3 210435Z 27000KT 00/M04 A30 RMK A01 T00031042  RH  072%=      5-min Rain = 0
KPD3 210436Z 29001KT 00/04 A30 RMK A01 T00000-43  RH  073%=      5-min Rain = 0
KPD3 210437Z 30001KT M00/M04 A30 RMK A01 T10021043  RH  074%=      5-min Rain = 0
KPD3 210438Z 29001KT M00/M04 A30 RMK A01 T10031043  RH  074%=      5-min Rain = 0
KPD3 210439Z 29001KT M00/M04 A30 RMK A01 T10041044  RH  074%=      5-min Rain = 0
KPD3 210440Z 29001KT M01/M04 A30 RMK A01 T10051043  RH  075%=      5-min Rain = 0
KPD3 210441Z 29002KT M01/M05 A30 RMK A01 T10061045  RH  075%=      5-min Rain = 0
KPD3 210442Z 30001KT M01/M05 A30 RMK A01 T10081046  RH  075%=      5-min Rain = 0
KPD3 210443Z 30001KT M01/M05 A30 RMK A01 T10101048  RH  076%=      5-min Rain = 0
KPD3 210444Z 31001KT M01/M05 A30 RMK A01 T10111047  RH  077%=      5-min Rain = 0
KPD3 210445Z 31002KT M01/M05 A30 RMK A01 T10121047  RH  077%=      5-min Rain = 0
KPD3 210446Z 31002KT M01/M05 A30 RMK A01 T10131048  RH  077%=      5-min Rain = 0
KPD3 210447Z 31002KT M01/M05 A3001 RMK A01 T10141047  RH  078%=      5-min Rain = 0
KPD3 210448Z 31002KT M01/M05 A3001 RMK A01 T10141047  RH  078%=      5-min Rain = 0
KPD3 210449Z 30002KT M01/M05 A3001 RMK A01 T10141046  RH  079%=      5-min Rain = 0
KPD3 210450Z 31002KT M01/M05 A3001 RMK A01 T10141046  RH  079%=      5-min Rain = 0
KPD3 210451Z 30002KT M02/M05 A3001 RMK A01 T10151048  RH  079%=      5-min Rain = 0
KPD3 210452Z 30002KT M02/M05 A3001 RMK A01 T10161048  RH  079%=      5-min Rain = 0
KPD3 210453Z 30002KT M02/M05 A3001 RMK A01 T10161047  RH  079%=      5-min Rain = 0
KPD3 210454Z 30002KT M02/M05 A3001 RMK A01 T10161048  RH  079%=      5-min Rain = 0
KPD3 210455Z 30002KT M02/M05 A3001 RMK A01 T10171047  RH  080%=      5-min Rain = 0
KPD3 210456Z 29001KT M02/M05 A3001 RMK A01 T10171046  RH  080%=      5-min Rain = 0
KPD3 210457Z 30002KT M02/M05 A3001 RMK A01 T10161045  RH  080%=      5-min Rain = 0
KPD3 210458Z 30002KT M02/M05 A3001 RMK A01 T10151045  RH  080%=      5-min Rain = 0
KPD3 210459Z 30002KT M02/M05 A3001 RMK A01 T10151046  RH  080%=      5-min Rain = 0
KPD3 210500Z 30002KT M02/M05 A3001 RMK A01 T10161047  RH  079%=      5-min Rain = 0
KPD3 210501Z 31002KT M02/M05 A3001 RMK A01 T10171048  RH  079%=      5-min Rain = 0
KPD3 210502Z 32002KT M02/M05 A3001 RMK A01 T10191052  RH  078%=      5-min Rain = 0
KPD3 210503Z 31002KT M02/M05 A3001 RMK A01 T10221053  RH  079%=      5-min Rain = 0
KPD3 210504Z 31002KT M02/M05 A3001 RMK A01 T10241054  RH  079%=      5-min Rain = 0
KPD3 210505Z 31002KT M02/M05 A3001 RMK A01 T10241052  RH  082%=      5-min Rain = 0
KPD3 210506Z 31002KT M02/M05 A3001 RMK A01 T10231049  RH  082%=      5-min Rain = 0
KPD3 210507Z 31002KT M02/M05 A3001 RMK A01 T10231051  RH  081%=      5-min Rain = 0
KPD3 210508Z 31002KT M02/M05 A3001 RMK A01 T10241052  RH  081%=      5-min Rain = 0
KPD3 210509Z 31001KT M02/M05 A3001 RMK A01 T10241051  RH  082%=      5-min Rain = 0
KPD3 210510Z 30001KT M02/M05 A3001 RMK A01 T10241052  RH  081%=      5-min Rain = 0
KPD3 210511Z 30001KT M03/M06 A3001 RMK A01 T10261055  RH  080%=      5-min Rain = 0
KPD3 210512Z 30001KT M03/M06 A3001 RMK A01 T10281057  RH  080%=      5-min Rain = 0
KPD3 210513Z 31002KT M03/M06 A3001 RMK A01 T10291058  RH  081%=      5-min Rain = 0
KPD3 210514Z 30002KT M03/M06 A3001 RMK A01 T10301057  RH  082%=      5-min Rain = 0
KPD3 210515Z 30002KT M03/M06 A3001 RMK A01 T10311057  RH  082%=      5-min Rain = 0
KPD3 210516Z 29002KT M03/M06 A3001 RMK A01 T10321059  RH  082%=      5-min Rain = 0
KPD3 210517Z 28002KT M03/M06 A3001 RMK A01 T10331059  RH  082%=      5-min Rain = 0
KPD3 210518Z 28002KT M03/M06 A3001 RMK A01 T10331057  RH  084%=      5-min Rain = 0
KPD3 210519Z 28002KT M03/M06 A3001 RMK A01 T10331058  RH  083%=      5-min Rain = 0
KPD3 210520Z 28002KT M03/M06 A3001 RMK A01 T10341060  RH  082%=      5-min Rain = 0
KPD3 210521Z 27002KT M04/M06 A3001 RMK A01 T10361062  RH  082%=      5-min Rain = 0
KPD3 210522Z 27002KT M04/M06 A3001 RMK A01 T10371064  RH  082%=      5-min Rain = 0
KPD3 210523Z 28002KT M04/M07 A3001 RMK A01 T10391065  RH  082%=      5-min Rain = 0
KPD3 210524Z 28002KT M04/M06 A3001 RMK A01 T10391064  RH  083%=      5-min Rain = 0
KPD3 210525Z 28002KT M04/M06 A3001 RMK A01 T10391064  RH  083%=      5-min Rain = 0
KPD3 210526Z 28002KT M04/M07 A3001 RMK A01 T10411065  RH  083%=      5-min Rain = 0
KPD3 210527Z 28002KT M04/M07 A3001 RMK A01 T10421066  RH  083%=      5-min Rain = 0
KPD3 210528Z 27002KT M04/M07 A3001 RMK A01 T10431066  RH  083%=      5-min Rain = 0
KPD3 210529Z 27002KT M04/M07 A3001 RMK A01 T10431066  RH  084%=      5-min Rain = 0
KPD3 210530Z 28002KT M04/M07 A3001 RMK A01 T10441066  RH  084%=      5-min Rain = 0
KPD3 210531Z 28002KT M04/M07 A3001 RMK A01 T10441066  RH  085%=      5-min Rain = 0
KPD3 210532Z 28002KT M05/M07 A3001 RMK A01 T10451067  RH  085%=      5-min Rain = 0
KPD3 210533Z 28002KT M05/M07 A3001 RMK A01 T10461068  RH  085%=      5-min Rain = 0
KPD3 210534Z 28002KT M05/M07 A3001 RMK A01 T10471068  RH  085%=      5-min Rain = 0
KPD3 210535Z 28002KT M04/M06 A30 RMK A01 T10431061  RH  088%=      5-min Rain = 0
KPD3 210536Z 28002KT M04/M06 A30 RMK A01 T10401057  RH  088%=      5-min Rain = 0
KPD3 210537Z 28002KT M04/M06 A30 RMK A01 T10401059  RH  086%=      5-min Rain = 0
KPD3 210538Z 28002KT M04/M06 A30 RMK A01 T10401060  RH  086%=      5-min Rain = 0
KPD3 210539Z 28002KT M04/M06 A30 RMK A01 T10381058  RH  086%=      5-min Rain = 0
KPD3 210540Z 28002KT M04/M06 A30 RMK A01 T10381059  RH  085%=      5-min Rain = 0
KPD3 210541Z 29003KT M04/M06 A30 RMK A01 T10391060  RH  085%=      5-min Rain = 0
KPD3 210542Z 29002KT M04/M06 A30 RMK A01 T10391060  RH  085%=      5-min Rain = 0
KPD3 210543Z 30002KT M04/M06 A30 RMK A01 T10391060  RH  085%=      5-min Rain = 0
KPD3 210544Z 30002KT M04/M06 A30 RMK A01 T10391060  RH  086%=      5-min Rain = 0
KPD3 210545Z 31003KT M04/M06 A30 RMK A01 T10391059  RH  086%=      5-min Rain = 0
KPD3 210546Z 31003KT M04/M06 A30 RMK A01 T10381057  RH  086%=      5-min Rain = 0
KPD3 210547Z 31002KT M03/M05 A30 RMK A01 T10321048  RH  089%=      5-min Rain = 0
KPD3 210548Z 31002KT M03/M05 A30 RMK A01 T10291048  RH  087%=      5-min Rain = 0
KPD3 210549Z 31003KT M03/M05 A30 RMK A01 T10291052  RH  084%=      5-min Rain = 0
KPD3 210550Z 32003KT M03/M05 A30 RMK A01 T10301054  RH  084%=      5-min Rain = 0
KPD3 210551Z 32002KT M03/M05 A30 RMK A01 T10301054  RH  084%=      5-min Rain = 0
KPD3 210552Z 31002KT M03/M05 A30 RMK A01 T10281049  RH  085%=      5-min Rain = 0
KPD3 210553Z 31002KT M03/M05 A30 RMK A01 T10271049  RH  085%=      5-min Rain = 0
KPD3 210554Z 31002KT M03/M05 A30 RMK A01 T10271050  RH  084%=      5-min Rain = 0
KPD3 210555Z 31002KT M03/M05 A30 RMK A01 T10281053  RH  083%=      5-min Rain = 0
KPD3 210556Z 31002KT M03/M06 A30 RMK A01 T10301056  RH  082%=      5-min Rain = 0
KPD3 210557Z 32002KT M03/M06 A30 RMK A01 T10331059  RH  082%=      5-min Rain = 0
KPD3 210558Z 30003KT M03/M06 A30 RMK A01 T10341059  RH  083%=      5-min Rain = 0
KPD3 210559Z 30002KT M04/M06 A30 RMK A01 T10351058  RH  084%=      5-min Rain = 0

Page generated in 0.1311 seconds.